<?xml version="1.0" encoding="UTF-8" standalone="no" ?>
<gpx xmlns="http://www.topografix.com/GPX/1/1" xmlns:xsi="http://www.w3.org/2001/XMLSchema-instance" xsi:schemaLocation="http://www.topografix.com/GPX/1/1 http://www.topografix.com/GPX/1/1/gpx.xsd" version="1.1" creator="VisuGPX - https://www.visugpx.com">
  <metadata>
    <name>Les environs de la Sauvetat de Blanquefort</name>
    <desc><![CDATA[De larges chemins roulants bien que les portions plates soient rares]]></desc>
  </metadata>
  <trk>
    <name><![CDATA[09-NOV-14 12:12:42]]></name>
    <trkseg>
      <trkpt lat="44.59192" lon="0.9277">
        <ele>245.27</ele>
        <time>2014-11-09T08:03:16Z</time>
      </trkpt>
      <trkpt lat="44.59193" lon="0.92771">
        <ele>244.31</ele>
        <time>2014-11-09T08:03:34Z</time>
      </trkpt>
      <trkpt lat="44.59195" lon="0.92772">
        <ele>245.27</ele>
        <time>2014-11-09T08:03:52Z</time>
      </trkpt>
      <trkpt lat="44.59198" lon="0.92772">
        <ele>246.23</ele>
        <time>2014-11-09T08:04:11Z</time>
      </trkpt>
      <trkpt lat="44.59196" lon="0.92772">
        <ele>244.79</ele>
        <time>2014-11-09T08:04:32Z</time>
      </trkpt>
      <trkpt lat="44.59196" lon="0.92772">
        <ele>243.83</ele>
        <time>2014-11-09T08:04:53Z</time>
      </trkpt>
      <trkpt lat="44.59195" lon="0.92772">
        <ele>244.31</ele>
        <time>2014-11-09T08:05:04Z</time>
      </trkpt>
      <trkpt lat="44.59195" lon="0.92773">
        <ele>244.31</ele>
        <time>2014-11-09T08:05:21Z</time>
      </trkpt>
      <trkpt lat="44.59195" lon="0.92773">
        <ele>242.87</ele>
        <time>2014-11-09T08:05:38Z</time>
      </trkpt>
      <trkpt lat="44.59197" lon="0.92773">
        <ele>241.91</ele>
        <time>2014-11-09T08:05:55Z</time>
      </trkpt>
      <trkpt lat="44.59196" lon="0.92773">
        <ele>241.43</ele>
        <time>2014-11-09T08:06:10Z</time>
      </trkpt>
      <trkpt lat="44.59193" lon="0.92773">
        <ele>241.91</ele>
        <time>2014-11-09T08:06:29Z</time>
      </trkpt>
      <trkpt lat="44.59194" lon="0.92773">
        <ele>242.87</ele>
        <time>2014-11-09T08:06:43Z</time>
      </trkpt>
      <trkpt lat="44.59195" lon="0.92772">
        <ele>244.31</ele>
        <time>2014-11-09T08:07:08Z</time>
      </trkpt>
      <trkpt lat="44.59194" lon="0.92772">
        <ele>243.83</ele>
        <time>2014-11-09T08:07:39Z</time>
      </trkpt>
      <trkpt lat="44.59195" lon="0.92772">
        <ele>242.87</ele>
        <time>2014-11-09T08:08:05Z</time>
      </trkpt>
      <trkpt lat="44.59195" lon="0.92772">
        <ele>243.35</ele>
        <time>2014-11-09T08:08:27Z</time>
      </trkpt>
      <trkpt lat="44.59195" lon="0.92772">
        <ele>244.79</ele>
        <time>2014-11-09T08:08:43Z</time>
      </trkpt>
      <trkpt lat="44.59201" lon="0.92763">
        <ele>243.83</ele>
        <time>2014-11-09T08:08:48Z</time>
      </trkpt>
      <trkpt lat="44.59212" lon="0.92767">
        <ele>242.39</ele>
        <time>2014-11-09T08:08:54Z</time>
      </trkpt>
      <trkpt lat="44.59236" lon="0.92815">
        <ele>241.43</ele>
        <time>2014-11-09T08:09:07Z</time>
      </trkpt>
      <trkpt lat="44.59238" lon="0.92829">
        <ele>240.47</ele>
        <time>2014-11-09T08:09:10Z</time>
      </trkpt>
      <trkpt lat="44.59253" lon="0.92848">
        <ele>239.51</ele>
        <time>2014-11-09T08:09:15Z</time>
      </trkpt>
      <trkpt lat="44.59318" lon="0.92882">
        <ele>239.02</ele>
        <time>2014-11-09T08:09:29Z</time>
      </trkpt>
      <trkpt lat="44.59363" lon="0.92945">
        <ele>239.51</ele>
        <time>2014-11-09T08:09:43Z</time>
      </trkpt>
      <trkpt lat="44.59376" lon="0.92965">
        <ele>239.51</ele>
        <time>2014-11-09T08:09:47Z</time>
      </trkpt>
      <trkpt lat="44.59421" lon="0.93026">
        <ele>240.47</ele>
        <time>2014-11-09T08:10:03Z</time>
      </trkpt>
      <trkpt lat="44.5942" lon="0.93077">
        <ele>240.47</ele>
        <time>2014-11-09T08:10:14Z</time>
      </trkpt>
      <trkpt lat="44.5943" lon="0.9315">
        <ele>240.95</ele>
        <time>2014-11-09T08:10:29Z</time>
      </trkpt>
      <trkpt lat="44.59434" lon="0.93164">
        <ele>240.47</ele>
        <time>2014-11-09T08:10:32Z</time>
      </trkpt>
      <trkpt lat="44.59453" lon="0.93247">
        <ele>239.99</ele>
        <time>2014-11-09T08:10:48Z</time>
      </trkpt>
      <trkpt lat="44.59473" lon="0.93303">
        <ele>240.95</ele>
        <time>2014-11-09T08:10:59Z</time>
      </trkpt>
      <trkpt lat="44.59485" lon="0.9332">
        <ele>241.43</ele>
        <time>2014-11-09T08:11:03Z</time>
      </trkpt>
      <trkpt lat="44.59518" lon="0.93367">
        <ele>241.91</ele>
        <time>2014-11-09T08:11:14Z</time>
      </trkpt>
      <trkpt lat="44.59529" lon="0.93405">
        <ele>242.39</ele>
        <time>2014-11-09T08:11:20Z</time>
      </trkpt>
      <trkpt lat="44.59573" lon="0.93526">
        <ele>239.51</ele>
        <time>2014-11-09T08:11:32Z</time>
      </trkpt>
      <trkpt lat="44.59596" lon="0.93595">
        <ele>237.58</ele>
        <time>2014-11-09T08:11:39Z</time>
      </trkpt>
      <trkpt lat="44.596" lon="0.93635">
        <ele>236.14</ele>
        <time>2014-11-09T08:11:43Z</time>
      </trkpt>
      <trkpt lat="44.59599" lon="0.93656">
        <ele>235.66</ele>
        <time>2014-11-09T08:11:45Z</time>
      </trkpt>
      <trkpt lat="44.59623" lon="0.9373">
        <ele>234.22</ele>
        <time>2014-11-09T08:11:53Z</time>
      </trkpt>
      <trkpt lat="44.59634" lon="0.93741">
        <ele>233.74</ele>
        <time>2014-11-09T08:11:55Z</time>
      </trkpt>
      <trkpt lat="44.59667" lon="0.93771">
        <ele>233.26</ele>
        <time>2014-11-09T08:12:01Z</time>
      </trkpt>
      <trkpt lat="44.59725" lon="0.93857">
        <ele>229.41</ele>
        <time>2014-11-09T08:12:13Z</time>
      </trkpt>
      <trkpt lat="44.59734" lon="0.93867">
        <ele>228.93</ele>
        <time>2014-11-09T08:12:15Z</time>
      </trkpt>
      <trkpt lat="44.59747" lon="0.93887">
        <ele>228.45</ele>
        <time>2014-11-09T08:12:19Z</time>
      </trkpt>
      <trkpt lat="44.59754" lon="0.93915">
        <ele>227.97</ele>
        <time>2014-11-09T08:12:24Z</time>
      </trkpt>
      <trkpt lat="44.59764" lon="0.93955">
        <ele>227.01</ele>
        <time>2014-11-09T08:12:33Z</time>
      </trkpt>
      <trkpt lat="44.59786" lon="0.93992">
        <ele>227.49</ele>
        <time>2014-11-09T08:12:40Z</time>
      </trkpt>
      <trkpt lat="44.59792" lon="0.94021">
        <ele>227.97</ele>
        <time>2014-11-09T08:12:45Z</time>
      </trkpt>
      <trkpt lat="44.59789" lon="0.94077">
        <ele>221.72</ele>
        <time>2014-11-09T08:12:55Z</time>
      </trkpt>
      <trkpt lat="44.59789" lon="0.94124">
        <ele>214.03</ele>
        <time>2014-11-09T08:13:04Z</time>
      </trkpt>
      <trkpt lat="44.59795" lon="0.94153">
        <ele>213.55</ele>
        <time>2014-11-09T08:13:11Z</time>
      </trkpt>
      <trkpt lat="44.59796" lon="0.9416">
        <ele>213.55</ele>
        <time>2014-11-09T08:13:13Z</time>
      </trkpt>
      <trkpt lat="44.59805" lon="0.94179">
        <ele>213.07</ele>
        <time>2014-11-09T08:13:18Z</time>
      </trkpt>
      <trkpt lat="44.59815" lon="0.94195">
        <ele>213.55</ele>
        <time>2014-11-09T08:13:22Z</time>
      </trkpt>
      <trkpt lat="44.59836" lon="0.94233">
        <ele>223.64</ele>
        <time>2014-11-09T08:13:34Z</time>
      </trkpt>
      <trkpt lat="44.59848" lon="0.94248">
        <ele>227.01</ele>
        <time>2014-11-09T08:13:39Z</time>
      </trkpt>
      <trkpt lat="44.59859" lon="0.94268">
        <ele>228.45</ele>
        <time>2014-11-09T08:13:43Z</time>
      </trkpt>
      <trkpt lat="44.59867" lon="0.94279">
        <ele>228.45</ele>
        <time>2014-11-09T08:13:45Z</time>
      </trkpt>
      <trkpt lat="44.59874" lon="0.94292">
        <ele>228.45</ele>
        <time>2014-11-09T08:13:47Z</time>
      </trkpt>
      <trkpt lat="44.59885" lon="0.9431">
        <ele>227.01</ele>
        <time>2014-11-09T08:13:50Z</time>
      </trkpt>
      <trkpt lat="44.59894" lon="0.94319">
        <ele>226.53</ele>
        <time>2014-11-09T08:13:52Z</time>
      </trkpt>
      <trkpt lat="44.59912" lon="0.94346">
        <ele>227.49</ele>
        <time>2014-11-09T08:13:59Z</time>
      </trkpt>
      <trkpt lat="44.59922" lon="0.94365">
        <ele>228.45</ele>
        <time>2014-11-09T08:14:03Z</time>
      </trkpt>
      <trkpt lat="44.59919" lon="0.94418">
        <ele>224.12</ele>
        <time>2014-11-09T08:14:13Z</time>
      </trkpt>
      <trkpt lat="44.59903" lon="0.94494">
        <ele>227.49</ele>
        <time>2014-11-09T08:14:27Z</time>
      </trkpt>
      <trkpt lat="44.59889" lon="0.94589">
        <ele>229.89</ele>
        <time>2014-11-09T08:14:45Z</time>
      </trkpt>
      <trkpt lat="44.59865" lon="0.94667">
        <ele>231.33</ele>
        <time>2014-11-09T08:15:01Z</time>
      </trkpt>
      <trkpt lat="44.59851" lon="0.94716">
        <ele>234.22</ele>
        <time>2014-11-09T08:15:13Z</time>
      </trkpt>
      <trkpt lat="44.59828" lon="0.94763">
        <ele>231.81</ele>
        <time>2014-11-09T08:15:24Z</time>
      </trkpt>
      <trkpt lat="44.59811" lon="0.94801">
        <ele>231.33</ele>
        <time>2014-11-09T08:15:33Z</time>
      </trkpt>
      <trkpt lat="44.59771" lon="0.94851">
        <ele>234.7</ele>
        <time>2014-11-09T08:15:45Z</time>
      </trkpt>
      <trkpt lat="44.5973" lon="0.9491">
        <ele>238.06</ele>
        <time>2014-11-09T08:16:00Z</time>
      </trkpt>
      <trkpt lat="44.59722" lon="0.94929">
        <ele>238.54</ele>
        <time>2014-11-09T08:16:04Z</time>
      </trkpt>
      <trkpt lat="44.59717" lon="0.94947">
        <ele>239.02</ele>
        <time>2014-11-09T08:16:07Z</time>
      </trkpt>
      <trkpt lat="44.597" lon="0.94987">
        <ele>238.06</ele>
        <time>2014-11-09T08:16:13Z</time>
      </trkpt>
      <trkpt lat="44.59675" lon="0.94996">
        <ele>235.18</ele>
        <time>2014-11-09T08:16:19Z</time>
      </trkpt>
      <trkpt lat="44.59648" lon="0.95046">
        <ele>229.41</ele>
        <time>2014-11-09T08:16:27Z</time>
      </trkpt>
      <trkpt lat="44.59658" lon="0.95068">
        <ele>229.89</ele>
        <time>2014-11-09T08:16:32Z</time>
      </trkpt>
      <trkpt lat="44.5967" lon="0.95078">
        <ele>230.85</ele>
        <time>2014-11-09T08:16:37Z</time>
      </trkpt>
      <trkpt lat="44.5967" lon="0.9509">
        <ele>229.41</ele>
        <time>2014-11-09T08:16:42Z</time>
      </trkpt>
      <trkpt lat="44.59648" lon="0.95108">
        <ele>227.49</ele>
        <time>2014-11-09T08:16:48Z</time>
      </trkpt>
      <trkpt lat="44.59618" lon="0.95139">
        <ele>226.53</ele>
        <time>2014-11-09T08:16:57Z</time>
      </trkpt>
      <trkpt lat="44.59613" lon="0.95148">
        <ele>226.05</ele>
        <time>2014-11-09T08:16:59Z</time>
      </trkpt>
      <trkpt lat="44.59589" lon="0.95197">
        <ele>220.76</ele>
        <time>2014-11-09T08:17:11Z</time>
      </trkpt>
      <trkpt lat="44.59575" lon="0.95258">
        <ele>211.63</ele>
        <time>2014-11-09T08:17:22Z</time>
      </trkpt>
      <trkpt lat="44.59575" lon="0.95264">
        <ele>210.67</ele>
        <time>2014-11-09T08:17:23Z</time>
      </trkpt>
      <trkpt lat="44.59582" lon="0.95306">
        <ele>204.42</ele>
        <time>2014-11-09T08:17:29Z</time>
      </trkpt>
      <trkpt lat="44.5958" lon="0.95367">
        <ele>199.13</ele>
        <time>2014-11-09T08:17:37Z</time>
      </trkpt>
      <trkpt lat="44.59575" lon="0.9542">
        <ele>192.88</ele>
        <time>2014-11-09T08:17:46Z</time>
      </trkpt>
      <trkpt lat="44.59569" lon="0.95479">
        <ele>180.87</ele>
        <time>2014-11-09T08:17:56Z</time>
      </trkpt>
      <trkpt lat="44.5957" lon="0.95528">
        <ele>170.77</ele>
        <time>2014-11-09T08:18:05Z</time>
      </trkpt>
      <trkpt lat="44.5957" lon="0.95533">
        <ele>170.29</ele>
        <time>2014-11-09T08:18:06Z</time>
      </trkpt>
      <trkpt lat="44.59574" lon="0.95554">
        <ele>167.89</ele>
        <time>2014-11-09T08:18:09Z</time>
      </trkpt>
      <trkpt lat="44.59588" lon="0.95594">
        <ele>169.81</ele>
        <time>2014-11-09T08:18:14Z</time>
      </trkpt>
      <trkpt lat="44.59593" lon="0.95609">
        <ele>170.77</ele>
        <time>2014-11-09T08:18:16Z</time>
      </trkpt>
      <trkpt lat="44.59602" lon="0.95634">
        <ele>173.17</ele>
        <time>2014-11-09T08:18:20Z</time>
      </trkpt>
      <trkpt lat="44.59614" lon="0.95665">
        <ele>173.66</ele>
        <time>2014-11-09T08:18:26Z</time>
      </trkpt>
      <trkpt lat="44.5962" lon="0.95695">
        <ele>171.73</ele>
        <time>2014-11-09T08:18:32Z</time>
      </trkpt>
      <trkpt lat="44.59606" lon="0.95751">
        <ele>159.72</ele>
        <time>2014-11-09T08:18:44Z</time>
      </trkpt>
      <trkpt lat="44.59595" lon="0.95779">
        <ele>150.1</ele>
        <time>2014-11-09T08:18:51Z</time>
      </trkpt>
      <trkpt lat="44.59589" lon="0.9583">
        <ele>134.72</ele>
        <time>2014-11-09T08:19:02Z</time>
      </trkpt>
      <trkpt lat="44.59593" lon="0.95877">
        <ele>126.07</ele>
        <time>2014-11-09T08:19:12Z</time>
      </trkpt>
      <trkpt lat="44.59594" lon="0.9591">
        <ele>116.94</ele>
        <time>2014-11-09T08:19:23Z</time>
      </trkpt>
      <trkpt lat="44.596" lon="0.95928">
        <ele>112.61</ele>
        <time>2014-11-09T08:19:40Z</time>
      </trkpt>
      <trkpt lat="44.59595" lon="0.9594">
        <ele>123.19</ele>
        <time>2014-11-09T08:20:10Z</time>
      </trkpt>
      <trkpt lat="44.59593" lon="0.95947">
        <ele>127.51</ele>
        <time>2014-11-09T08:20:13Z</time>
      </trkpt>
      <trkpt lat="44.59589" lon="0.95983">
        <ele>131.84</ele>
        <time>2014-11-09T08:20:22Z</time>
      </trkpt>
      <trkpt lat="44.59594" lon="0.96025">
        <ele>129.92</ele>
        <time>2014-11-09T08:20:33Z</time>
      </trkpt>
      <trkpt lat="44.59583" lon="0.96052">
        <ele>130.88</ele>
        <time>2014-11-09T08:20:40Z</time>
      </trkpt>
      <trkpt lat="44.59551" lon="0.96073">
        <ele>132.8</ele>
        <time>2014-11-09T08:20:50Z</time>
      </trkpt>
      <trkpt lat="44.59542" lon="0.96078">
        <ele>133.28</ele>
        <time>2014-11-09T08:20:53Z</time>
      </trkpt>
      <trkpt lat="44.59518" lon="0.9608">
        <ele>139.05</ele>
        <time>2014-11-09T08:21:00Z</time>
      </trkpt>
      <trkpt lat="44.59478" lon="0.9609">
        <ele>140.01</ele>
        <time>2014-11-09T08:21:09Z</time>
      </trkpt>
      <trkpt lat="44.59451" lon="0.96092">
        <ele>137.13</ele>
        <time>2014-11-09T08:21:15Z</time>
      </trkpt>
      <trkpt lat="44.59442" lon="0.96104">
        <ele>134.72</ele>
        <time>2014-11-09T08:21:19Z</time>
      </trkpt>
      <trkpt lat="44.59474" lon="0.96141">
        <ele>127.51</ele>
        <time>2014-11-09T08:21:28Z</time>
      </trkpt>
      <trkpt lat="44.59478" lon="0.96149">
        <ele>126.07</ele>
        <time>2014-11-09T08:21:30Z</time>
      </trkpt>
      <trkpt lat="44.59482" lon="0.96163">
        <ele>122.71</ele>
        <time>2014-11-09T08:21:35Z</time>
      </trkpt>
      <trkpt lat="44.59479" lon="0.96167">
        <ele>125.11</ele>
        <time>2014-11-09T08:21:49Z</time>
      </trkpt>
      <trkpt lat="44.59478" lon="0.96167">
        <ele>125.59</ele>
        <time>2014-11-09T08:22:17Z</time>
      </trkpt>
      <trkpt lat="44.59478" lon="0.96168">
        <ele>131.36</ele>
        <time>2014-11-09T08:22:46Z</time>
      </trkpt>
      <trkpt lat="44.59479" lon="0.96171">
        <ele>132.32</ele>
        <time>2014-11-09T08:22:51Z</time>
      </trkpt>
      <trkpt lat="44.59476" lon="0.96217">
        <ele>129.43</ele>
        <time>2014-11-09T08:23:03Z</time>
      </trkpt>
      <trkpt lat="44.59465" lon="0.96264">
        <ele>131.36</ele>
        <time>2014-11-09T08:23:14Z</time>
      </trkpt>
      <trkpt lat="44.59455" lon="0.96301">
        <ele>133.28</ele>
        <time>2014-11-09T08:23:25Z</time>
      </trkpt>
      <trkpt lat="44.59453" lon="0.96307">
        <ele>133.28</ele>
        <time>2014-11-09T08:23:27Z</time>
      </trkpt>
      <trkpt lat="44.59432" lon="0.96337">
        <ele>136.16</ele>
        <time>2014-11-09T08:23:40Z</time>
      </trkpt>
      <trkpt lat="44.59413" lon="0.96371">
        <ele>135.68</ele>
        <time>2014-11-09T08:23:53Z</time>
      </trkpt>
      <trkpt lat="44.59412" lon="0.96376">
        <ele>135.2</ele>
        <time>2014-11-09T08:23:55Z</time>
      </trkpt>
      <trkpt lat="44.59421" lon="0.96396">
        <ele>136.64</ele>
        <time>2014-11-09T08:24:04Z</time>
      </trkpt>
      <trkpt lat="44.5946" lon="0.96396">
        <ele>136.16</ele>
        <time>2014-11-09T08:24:12Z</time>
      </trkpt>
      <trkpt lat="44.59479" lon="0.96398">
        <ele>135.2</ele>
        <time>2014-11-09T08:24:15Z</time>
      </trkpt>
      <trkpt lat="44.59512" lon="0.96405">
        <ele>132.32</ele>
        <time>2014-11-09T08:24:20Z</time>
      </trkpt>
      <trkpt lat="44.59574" lon="0.96435">
        <ele>127.03</ele>
        <time>2014-11-09T08:24:28Z</time>
      </trkpt>
      <trkpt lat="44.59608" lon="0.96465">
        <ele>123.67</ele>
        <time>2014-11-09T08:24:33Z</time>
      </trkpt>
      <trkpt lat="44.59672" lon="0.9651">
        <ele>119.82</ele>
        <time>2014-11-09T08:24:42Z</time>
      </trkpt>
      <trkpt lat="44.59684" lon="0.96543">
        <ele>119.34</ele>
        <time>2014-11-09T08:24:47Z</time>
      </trkpt>
      <trkpt lat="44.59696" lon="0.96593">
        <ele>120.78</ele>
        <time>2014-11-09T08:24:57Z</time>
      </trkpt>
      <trkpt lat="44.59699" lon="0.96596">
        <ele>120.78</ele>
        <time>2014-11-09T08:24:58Z</time>
      </trkpt>
      <trkpt lat="44.59695" lon="0.96602">
        <ele>122.71</ele>
        <time>2014-11-09T08:25:04Z</time>
      </trkpt>
      <trkpt lat="44.59678" lon="0.96598">
        <ele>127.99</ele>
        <time>2014-11-09T08:25:15Z</time>
      </trkpt>
      <trkpt lat="44.59648" lon="0.96606">
        <ele>135.2</ele>
        <time>2014-11-09T08:25:30Z</time>
      </trkpt>
      <trkpt lat="44.59642" lon="0.96614">
        <ele>137.13</ele>
        <time>2014-11-09T08:25:36Z</time>
      </trkpt>
      <trkpt lat="44.59637" lon="0.96631">
        <ele>138.57</ele>
        <time>2014-11-09T08:25:46Z</time>
      </trkpt>
      <trkpt lat="44.59636" lon="0.96639">
        <ele>138.57</ele>
        <time>2014-11-09T08:25:50Z</time>
      </trkpt>
      <trkpt lat="44.59625" lon="0.96649">
        <ele>140.97</ele>
        <time>2014-11-09T08:25:58Z</time>
      </trkpt>
      <trkpt lat="44.59615" lon="0.96648">
        <ele>144.34</ele>
        <time>2014-11-09T08:26:05Z</time>
      </trkpt>
      <trkpt lat="44.5961" lon="0.96647">
        <ele>145.78</ele>
        <time>2014-11-09T08:26:08Z</time>
      </trkpt>
      <trkpt lat="44.59606" lon="0.96657">
        <ele>148.18</ele>
        <time>2014-11-09T08:26:15Z</time>
      </trkpt>
      <trkpt lat="44.59617" lon="0.96691">
        <ele>153.47</ele>
        <time>2014-11-09T08:26:33Z</time>
      </trkpt>
      <trkpt lat="44.59626" lon="0.96722">
        <ele>158.27</ele>
        <time>2014-11-09T08:26:47Z</time>
      </trkpt>
      <trkpt lat="44.59646" lon="0.96743">
        <ele>163.08</ele>
        <time>2014-11-09T08:27:02Z</time>
      </trkpt>
      <trkpt lat="44.59667" lon="0.96761">
        <ele>166.45</ele>
        <time>2014-11-09T08:27:15Z</time>
      </trkpt>
      <trkpt lat="44.59686" lon="0.96791">
        <ele>164.52</ele>
        <time>2014-11-09T08:27:27Z</time>
      </trkpt>
      <trkpt lat="44.59698" lon="0.96823">
        <ele>164.52</ele>
        <time>2014-11-09T08:27:39Z</time>
      </trkpt>
      <trkpt lat="44.59719" lon="0.9684">
        <ele>165</ele>
        <time>2014-11-09T08:27:51Z</time>
      </trkpt>
      <trkpt lat="44.59744" lon="0.9684">
        <ele>167.89</ele>
        <time>2014-11-09T08:28:03Z</time>
      </trkpt>
      <trkpt lat="44.59775" lon="0.96851">
        <ele>167.41</ele>
        <time>2014-11-09T08:28:16Z</time>
      </trkpt>
      <trkpt lat="44.59813" lon="0.96892">
        <ele>166.45</ele>
        <time>2014-11-09T08:28:29Z</time>
      </trkpt>
      <trkpt lat="44.59847" lon="0.96942">
        <ele>168.37</ele>
        <time>2014-11-09T08:28:43Z</time>
      </trkpt>
      <trkpt lat="44.59861" lon="0.96959">
        <ele>169.33</ele>
        <time>2014-11-09T08:28:48Z</time>
      </trkpt>
      <trkpt lat="44.59865" lon="0.96975">
        <ele>169.81</ele>
        <time>2014-11-09T08:28:52Z</time>
      </trkpt>
      <trkpt lat="44.59868" lon="0.96993">
        <ele>167.41</ele>
        <time>2014-11-09T08:29:00Z</time>
      </trkpt>
      <trkpt lat="44.59884" lon="0.96998">
        <ele>164.52</ele>
        <time>2014-11-09T08:29:06Z</time>
      </trkpt>
      <trkpt lat="44.59893" lon="0.96996">
        <ele>162.12</ele>
        <time>2014-11-09T08:29:11Z</time>
      </trkpt>
      <trkpt lat="44.59898" lon="0.97001">
        <ele>160.2</ele>
        <time>2014-11-09T08:29:15Z</time>
      </trkpt>
      <trkpt lat="44.59905" lon="0.97012">
        <ele>158.27</ele>
        <time>2014-11-09T08:29:18Z</time>
      </trkpt>
      <trkpt lat="44.59933" lon="0.97033">
        <ele>149.62</ele>
        <time>2014-11-09T08:29:28Z</time>
      </trkpt>
      <trkpt lat="44.5994" lon="0.9705">
        <ele>145.78</ele>
        <time>2014-11-09T08:29:32Z</time>
      </trkpt>
      <trkpt lat="44.59941" lon="0.97061">
        <ele>143.85</ele>
        <time>2014-11-09T08:29:34Z</time>
      </trkpt>
      <trkpt lat="44.5995" lon="0.97062">
        <ele>143.37</ele>
        <time>2014-11-09T08:29:38Z</time>
      </trkpt>
      <trkpt lat="44.59967" lon="0.97044">
        <ele>140.01</ele>
        <time>2014-11-09T08:29:48Z</time>
      </trkpt>
      <trkpt lat="44.59992" lon="0.97012">
        <ele>137.13</ele>
        <time>2014-11-09T08:30:00Z</time>
      </trkpt>
      <trkpt lat="44.60029" lon="0.97025">
        <ele>136.64</ele>
        <time>2014-11-09T08:30:11Z</time>
      </trkpt>
      <trkpt lat="44.60032" lon="0.97027">
        <ele>136.64</ele>
        <time>2014-11-09T08:30:12Z</time>
      </trkpt>
      <trkpt lat="44.60078" lon="0.97044">
        <ele>139.05</ele>
        <time>2014-11-09T08:30:27Z</time>
      </trkpt>
      <trkpt lat="44.60111" lon="0.97058">
        <ele>139.05</ele>
        <time>2014-11-09T08:30:40Z</time>
      </trkpt>
      <trkpt lat="44.60148" lon="0.97082">
        <ele>142.41</ele>
        <time>2014-11-09T08:30:55Z</time>
      </trkpt>
      <trkpt lat="44.60175" lon="0.97112">
        <ele>149.62</ele>
        <time>2014-11-09T08:31:09Z</time>
      </trkpt>
      <trkpt lat="44.60178" lon="0.97118">
        <ele>150.58</ele>
        <time>2014-11-09T08:31:11Z</time>
      </trkpt>
      <trkpt lat="44.60197" lon="0.97133">
        <ele>152.51</ele>
        <time>2014-11-09T08:31:19Z</time>
      </trkpt>
      <trkpt lat="44.60238" lon="0.97141">
        <ele>150.58</ele>
        <time>2014-11-09T08:31:32Z</time>
      </trkpt>
      <trkpt lat="44.6028" lon="0.97159">
        <ele>150.1</ele>
        <time>2014-11-09T08:31:45Z</time>
      </trkpt>
      <trkpt lat="44.60314" lon="0.97172">
        <ele>154.43</ele>
        <time>2014-11-09T08:31:58Z</time>
      </trkpt>
      <trkpt lat="44.60323" lon="0.97169">
        <ele>156.35</ele>
        <time>2014-11-09T08:32:03Z</time>
      </trkpt>
      <trkpt lat="44.60332" lon="0.97161">
        <ele>158.27</ele>
        <time>2014-11-09T08:32:08Z</time>
      </trkpt>
      <trkpt lat="44.60335" lon="0.97157">
        <ele>158.75</ele>
        <time>2014-11-09T08:32:10Z</time>
      </trkpt>
      <trkpt lat="44.60338" lon="0.97123">
        <ele>165.48</ele>
        <time>2014-11-09T08:32:24Z</time>
      </trkpt>
      <trkpt lat="44.60347" lon="0.97091">
        <ele>167.41</ele>
        <time>2014-11-09T08:32:37Z</time>
      </trkpt>
      <trkpt lat="44.60354" lon="0.9707">
        <ele>167.89</ele>
        <time>2014-11-09T08:32:47Z</time>
      </trkpt>
      <trkpt lat="44.60372" lon="0.97047">
        <ele>172.21</ele>
        <time>2014-11-09T08:33:01Z</time>
      </trkpt>
      <trkpt lat="44.60374" lon="0.97045">
        <ele>172.69</ele>
        <time>2014-11-09T08:33:03Z</time>
      </trkpt>
      <trkpt lat="44.60377" lon="0.97037">
        <ele>174.14</ele>
        <time>2014-11-09T08:33:08Z</time>
      </trkpt>
      <trkpt lat="44.60399" lon="0.9702">
        <ele>177.5</ele>
        <time>2014-11-09T08:33:22Z</time>
      </trkpt>
      <trkpt lat="44.60407" lon="0.97016">
        <ele>178.46</ele>
        <time>2014-11-09T08:33:28Z</time>
      </trkpt>
      <trkpt lat="44.60433" lon="0.97003">
        <ele>180.87</ele>
        <time>2014-11-09T08:33:41Z</time>
      </trkpt>
      <trkpt lat="44.60462" lon="0.96989">
        <ele>182.31</ele>
        <time>2014-11-09T08:33:54Z</time>
      </trkpt>
      <trkpt lat="44.60494" lon="0.96972">
        <ele>179.9</ele>
        <time>2014-11-09T08:34:07Z</time>
      </trkpt>
      <trkpt lat="44.60522" lon="0.96965">
        <ele>180.38</ele>
        <time>2014-11-09T08:34:18Z</time>
      </trkpt>
      <trkpt lat="44.60549" lon="0.96941">
        <ele>183.27</ele>
        <time>2014-11-09T08:34:33Z</time>
      </trkpt>
      <trkpt lat="44.60567" lon="0.96916">
        <ele>185.19</ele>
        <time>2014-11-09T08:34:44Z</time>
      </trkpt>
      <trkpt lat="44.60586" lon="0.9689">
        <ele>185.19</ele>
        <time>2014-11-09T08:34:55Z</time>
      </trkpt>
      <trkpt lat="44.60588" lon="0.96887">
        <ele>184.71</ele>
        <time>2014-11-09T08:34:56Z</time>
      </trkpt>
      <trkpt lat="44.60609" lon="0.96871">
        <ele>187.11</ele>
        <time>2014-11-09T08:35:07Z</time>
      </trkpt>
      <trkpt lat="44.60643" lon="0.9683">
        <ele>190.96</ele>
        <time>2014-11-09T08:35:23Z</time>
      </trkpt>
      <trkpt lat="44.60651" lon="0.96795">
        <ele>191.92</ele>
        <time>2014-11-09T08:35:34Z</time>
      </trkpt>
      <trkpt lat="44.6064" lon="0.96763">
        <ele>198.17</ele>
        <time>2014-11-09T08:35:47Z</time>
      </trkpt>
      <trkpt lat="44.60628" lon="0.96727">
        <ele>203.94</ele>
        <time>2014-11-09T08:36:01Z</time>
      </trkpt>
      <trkpt lat="44.60624" lon="0.96692">
        <ele>206.34</ele>
        <time>2014-11-09T08:36:13Z</time>
      </trkpt>
      <trkpt lat="44.6063" lon="0.9666">
        <ele>203.46</ele>
        <time>2014-11-09T08:36:25Z</time>
      </trkpt>
      <trkpt lat="44.60642" lon="0.96612">
        <ele>200.57</ele>
        <time>2014-11-09T08:36:37Z</time>
      </trkpt>
      <trkpt lat="44.60638" lon="0.96581">
        <ele>201.53</ele>
        <time>2014-11-09T08:36:46Z</time>
      </trkpt>
      <trkpt lat="44.60637" lon="0.96566">
        <ele>202.98</ele>
        <time>2014-11-09T08:36:51Z</time>
      </trkpt>
      <trkpt lat="44.60636" lon="0.96553">
        <ele>203.46</ele>
        <time>2014-11-09T08:36:55Z</time>
      </trkpt>
      <trkpt lat="44.60634" lon="0.96519">
        <ele>205.38</ele>
        <time>2014-11-09T08:37:08Z</time>
      </trkpt>
      <trkpt lat="44.60635" lon="0.96501">
        <ele>205.86</ele>
        <time>2014-11-09T08:37:15Z</time>
      </trkpt>
      <trkpt lat="44.60636" lon="0.96494">
        <ele>205.86</ele>
        <time>2014-11-09T08:37:18Z</time>
      </trkpt>
      <trkpt lat="44.60636" lon="0.96491">
        <ele>206.34</ele>
        <time>2014-11-09T08:37:20Z</time>
      </trkpt>
      <trkpt lat="44.60637" lon="0.96467">
        <ele>207.78</ele>
        <time>2014-11-09T08:37:31Z</time>
      </trkpt>
      <trkpt lat="44.60636" lon="0.96463">
        <ele>207.78</ele>
        <time>2014-11-09T08:37:34Z</time>
      </trkpt>
      <trkpt lat="44.60633" lon="0.96456">
        <ele>206.82</ele>
        <time>2014-11-09T08:37:50Z</time>
      </trkpt>
      <trkpt lat="44.60634" lon="0.96437">
        <ele>206.34</ele>
        <time>2014-11-09T08:38:01Z</time>
      </trkpt>
      <trkpt lat="44.60628" lon="0.96401">
        <ele>210.67</ele>
        <time>2014-11-09T08:38:12Z</time>
      </trkpt>
      <trkpt lat="44.60625" lon="0.96379">
        <ele>214.51</ele>
        <time>2014-11-09T08:38:20Z</time>
      </trkpt>
      <trkpt lat="44.60632" lon="0.9634">
        <ele>217.4</ele>
        <time>2014-11-09T08:38:36Z</time>
      </trkpt>
      <trkpt lat="44.60642" lon="0.96303">
        <ele>218.84</ele>
        <time>2014-11-09T08:38:52Z</time>
      </trkpt>
      <trkpt lat="44.60654" lon="0.96267">
        <ele>221.72</ele>
        <time>2014-11-09T08:39:06Z</time>
      </trkpt>
      <trkpt lat="44.60678" lon="0.96221">
        <ele>221.24</ele>
        <time>2014-11-09T08:39:20Z</time>
      </trkpt>
      <trkpt lat="44.60704" lon="0.96181">
        <ele>220.28</ele>
        <time>2014-11-09T08:39:32Z</time>
      </trkpt>
      <trkpt lat="44.60712" lon="0.96174">
        <ele>220.28</ele>
        <time>2014-11-09T08:39:43Z</time>
      </trkpt>
      <trkpt lat="44.60712" lon="0.96173">
        <ele>220.76</ele>
        <time>2014-11-09T08:40:02Z</time>
      </trkpt>
      <trkpt lat="44.60713" lon="0.96174">
        <ele>222.68</ele>
        <time>2014-11-09T08:40:24Z</time>
      </trkpt>
      <trkpt lat="44.60713" lon="0.96173">
        <ele>219.8</ele>
        <time>2014-11-09T08:40:48Z</time>
      </trkpt>
      <trkpt lat="44.60727" lon="0.96157">
        <ele>219.8</ele>
        <time>2014-11-09T08:41:01Z</time>
      </trkpt>
      <trkpt lat="44.60756" lon="0.96126">
        <ele>219.8</ele>
        <time>2014-11-09T08:41:13Z</time>
      </trkpt>
      <trkpt lat="44.60778" lon="0.96114">
        <ele>219.8</ele>
        <time>2014-11-09T08:41:25Z</time>
      </trkpt>
      <trkpt lat="44.60777" lon="0.96114">
        <ele>219.32</ele>
        <time>2014-11-09T08:41:39Z</time>
      </trkpt>
      <trkpt lat="44.60777" lon="0.96112">
        <ele>220.28</ele>
        <time>2014-11-09T08:41:51Z</time>
      </trkpt>
      <trkpt lat="44.60778" lon="0.96116">
        <ele>222.2</ele>
        <time>2014-11-09T08:42:07Z</time>
      </trkpt>
      <trkpt lat="44.60777" lon="0.96116">
        <ele>225.57</ele>
        <time>2014-11-09T08:42:32Z</time>
      </trkpt>
      <trkpt lat="44.60787" lon="0.96112">
        <ele>223.16</ele>
        <time>2014-11-09T08:42:45Z</time>
      </trkpt>
      <trkpt lat="44.60821" lon="0.96092">
        <ele>224.12</ele>
        <time>2014-11-09T08:42:59Z</time>
      </trkpt>
      <trkpt lat="44.60856" lon="0.9607">
        <ele>225.09</ele>
        <time>2014-11-09T08:43:11Z</time>
      </trkpt>
      <trkpt lat="44.60911" lon="0.96022">
        <ele>223.64</ele>
        <time>2014-11-09T08:43:27Z</time>
      </trkpt>
      <trkpt lat="44.60966" lon="0.95955">
        <ele>224.12</ele>
        <time>2014-11-09T08:43:43Z</time>
      </trkpt>
      <trkpt lat="44.6098" lon="0.95934">
        <ele>224.61</ele>
        <time>2014-11-09T08:43:47Z</time>
      </trkpt>
      <trkpt lat="44.60985" lon="0.95921">
        <ele>224.61</ele>
        <time>2014-11-09T08:43:49Z</time>
      </trkpt>
      <trkpt lat="44.60991" lon="0.95901">
        <ele>224.61</ele>
        <time>2014-11-09T08:43:52Z</time>
      </trkpt>
      <trkpt lat="44.60999" lon="0.95866">
        <ele>224.12</ele>
        <time>2014-11-09T08:43:57Z</time>
      </trkpt>
      <trkpt lat="44.61006" lon="0.95839">
        <ele>223.64</ele>
        <time>2014-11-09T08:44:01Z</time>
      </trkpt>
      <trkpt lat="44.6102" lon="0.9578">
        <ele>225.09</ele>
        <time>2014-11-09T08:44:10Z</time>
      </trkpt>
      <trkpt lat="44.61049" lon="0.95688">
        <ele>230.85</ele>
        <time>2014-11-09T08:44:25Z</time>
      </trkpt>
      <trkpt lat="44.61071" lon="0.95627">
        <ele>232.78</ele>
        <time>2014-11-09T08:44:36Z</time>
      </trkpt>
      <trkpt lat="44.61104" lon="0.9556">
        <ele>233.26</ele>
        <time>2014-11-09T08:44:50Z</time>
      </trkpt>
      <trkpt lat="44.61112" lon="0.95537">
        <ele>232.78</ele>
        <time>2014-11-09T08:44:54Z</time>
      </trkpt>
      <trkpt lat="44.61123" lon="0.95509">
        <ele>232.3</ele>
        <time>2014-11-09T08:44:59Z</time>
      </trkpt>
      <trkpt lat="44.61134" lon="0.95489">
        <ele>231.81</ele>
        <time>2014-11-09T08:45:03Z</time>
      </trkpt>
      <trkpt lat="44.61173" lon="0.95454">
        <ele>229.41</ele>
        <time>2014-11-09T08:45:14Z</time>
      </trkpt>
      <trkpt lat="44.61221" lon="0.95417">
        <ele>227.97</ele>
        <time>2014-11-09T08:45:27Z</time>
      </trkpt>
      <trkpt lat="44.6128" lon="0.95377">
        <ele>230.37</ele>
        <time>2014-11-09T08:45:43Z</time>
      </trkpt>
      <trkpt lat="44.61334" lon="0.95344">
        <ele>235.66</ele>
        <time>2014-11-09T08:45:58Z</time>
      </trkpt>
      <trkpt lat="44.61341" lon="0.95339">
        <ele>237.1</ele>
        <time>2014-11-09T08:46:00Z</time>
      </trkpt>
      <trkpt lat="44.61393" lon="0.95307">
        <ele>238.06</ele>
        <time>2014-11-09T08:46:13Z</time>
      </trkpt>
      <trkpt lat="44.61402" lon="0.95302">
        <ele>238.54</ele>
        <time>2014-11-09T08:46:15Z</time>
      </trkpt>
      <trkpt lat="44.61431" lon="0.95279">
        <ele>238.54</ele>
        <time>2014-11-09T08:46:22Z</time>
      </trkpt>
      <trkpt lat="44.61447" lon="0.95266">
        <ele>239.99</ele>
        <time>2014-11-09T08:46:26Z</time>
      </trkpt>
      <trkpt lat="44.61502" lon="0.95221">
        <ele>244.31</ele>
        <time>2014-11-09T08:46:42Z</time>
      </trkpt>
      <trkpt lat="44.61542" lon="0.95199">
        <ele>251.04</ele>
        <time>2014-11-09T08:46:55Z</time>
      </trkpt>
      <trkpt lat="44.61595" lon="0.95185">
        <ele>251.04</ele>
        <time>2014-11-09T08:47:09Z</time>
      </trkpt>
      <trkpt lat="44.61642" lon="0.95191">
        <ele>255.85</ele>
        <time>2014-11-09T08:47:24Z</time>
      </trkpt>
      <trkpt lat="44.61684" lon="0.95193">
        <ele>255.37</ele>
        <time>2014-11-09T08:47:36Z</time>
      </trkpt>
      <trkpt lat="44.61735" lon="0.95208">
        <ele>252</ele>
        <time>2014-11-09T08:47:50Z</time>
      </trkpt>
      <trkpt lat="44.61776" lon="0.95214">
        <ele>251.52</ele>
        <time>2014-11-09T08:48:04Z</time>
      </trkpt>
      <trkpt lat="44.61814" lon="0.95222">
        <ele>252.48</ele>
        <time>2014-11-09T08:48:17Z</time>
      </trkpt>
      <trkpt lat="44.61847" lon="0.95228">
        <ele>248.64</ele>
        <time>2014-11-09T08:48:25Z</time>
      </trkpt>
      <trkpt lat="44.61866" lon="0.95233">
        <ele>247.68</ele>
        <time>2014-11-09T08:48:29Z</time>
      </trkpt>
      <trkpt lat="44.61905" lon="0.9525">
        <ele>249.12</ele>
        <time>2014-11-09T08:48:37Z</time>
      </trkpt>
      <trkpt lat="44.61934" lon="0.95261">
        <ele>250.56</ele>
        <time>2014-11-09T08:48:44Z</time>
      </trkpt>
      <trkpt lat="44.61959" lon="0.95269">
        <ele>252.48</ele>
        <time>2014-11-09T08:48:50Z</time>
      </trkpt>
      <trkpt lat="44.62026" lon="0.95304">
        <ele>252</ele>
        <time>2014-11-09T08:49:05Z</time>
      </trkpt>
      <trkpt lat="44.62035" lon="0.95307">
        <ele>252</ele>
        <time>2014-11-09T08:49:07Z</time>
      </trkpt>
      <trkpt lat="44.62052" lon="0.95312">
        <ele>252.48</ele>
        <time>2014-11-09T08:49:11Z</time>
      </trkpt>
      <trkpt lat="44.62117" lon="0.95316">
        <ele>252.48</ele>
        <time>2014-11-09T08:49:26Z</time>
      </trkpt>
      <trkpt lat="44.62176" lon="0.95333">
        <ele>247.2</ele>
        <time>2014-11-09T08:49:35Z</time>
      </trkpt>
      <trkpt lat="44.62293" lon="0.95367">
        <ele>240.47</ele>
        <time>2014-11-09T08:49:47Z</time>
      </trkpt>
      <trkpt lat="44.62373" lon="0.95366">
        <ele>238.06</ele>
        <time>2014-11-09T08:49:56Z</time>
      </trkpt>
      <trkpt lat="44.62382" lon="0.95368">
        <ele>237.58</ele>
        <time>2014-11-09T08:49:57Z</time>
      </trkpt>
      <trkpt lat="44.62489" lon="0.95417">
        <ele>239.02</ele>
        <time>2014-11-09T08:50:10Z</time>
      </trkpt>
      <trkpt lat="44.62571" lon="0.95425">
        <ele>241.43</ele>
        <time>2014-11-09T08:50:23Z</time>
      </trkpt>
      <trkpt lat="44.62581" lon="0.95422">
        <ele>242.39</ele>
        <time>2014-11-09T08:50:25Z</time>
      </trkpt>
      <trkpt lat="44.62589" lon="0.95418">
        <ele>242.87</ele>
        <time>2014-11-09T08:50:27Z</time>
      </trkpt>
      <trkpt lat="44.62598" lon="0.95415">
        <ele>243.35</ele>
        <time>2014-11-09T08:50:29Z</time>
      </trkpt>
      <trkpt lat="44.62662" lon="0.95388">
        <ele>243.35</ele>
        <time>2014-11-09T08:50:42Z</time>
      </trkpt>
      <trkpt lat="44.62671" lon="0.95381">
        <ele>243.83</ele>
        <time>2014-11-09T08:50:44Z</time>
      </trkpt>
      <trkpt lat="44.62698" lon="0.95361">
        <ele>245.27</ele>
        <time>2014-11-09T08:50:50Z</time>
      </trkpt>
      <trkpt lat="44.62757" lon="0.95317">
        <ele>246.72</ele>
        <time>2014-11-09T08:51:04Z</time>
      </trkpt>
      <trkpt lat="44.62761" lon="0.95315">
        <ele>247.2</ele>
        <time>2014-11-09T08:51:05Z</time>
      </trkpt>
      <trkpt lat="44.62825" lon="0.95291">
        <ele>251.04</ele>
        <time>2014-11-09T08:51:20Z</time>
      </trkpt>
      <trkpt lat="44.62864" lon="0.95269">
        <ele>252.96</ele>
        <time>2014-11-09T08:51:31Z</time>
      </trkpt>
      <trkpt lat="44.6288" lon="0.95261">
        <ele>252.48</ele>
        <time>2014-11-09T08:51:35Z</time>
      </trkpt>
      <trkpt lat="44.62889" lon="0.95257">
        <ele>252</ele>
        <time>2014-11-09T08:51:37Z</time>
      </trkpt>
      <trkpt lat="44.62908" lon="0.95247">
        <ele>251.52</ele>
        <time>2014-11-09T08:51:41Z</time>
      </trkpt>
      <trkpt lat="44.62953" lon="0.95234">
        <ele>249.6</ele>
        <time>2014-11-09T08:51:50Z</time>
      </trkpt>
      <trkpt lat="44.62962" lon="0.9523">
        <ele>249.6</ele>
        <time>2014-11-09T08:51:52Z</time>
      </trkpt>
      <trkpt lat="44.62974" lon="0.95221">
        <ele>249.6</ele>
        <time>2014-11-09T08:51:55Z</time>
      </trkpt>
      <trkpt lat="44.62992" lon="0.95204">
        <ele>250.08</ele>
        <time>2014-11-09T08:52:00Z</time>
      </trkpt>
      <trkpt lat="44.63014" lon="0.95178">
        <ele>249.6</ele>
        <time>2014-11-09T08:52:07Z</time>
      </trkpt>
      <trkpt lat="44.63042" lon="0.95151">
        <ele>250.08</ele>
        <time>2014-11-09T08:52:16Z</time>
      </trkpt>
      <trkpt lat="44.63077" lon="0.95162">
        <ele>253.44</ele>
        <time>2014-11-09T08:52:26Z</time>
      </trkpt>
      <trkpt lat="44.63085" lon="0.9516">
        <ele>253.44</ele>
        <time>2014-11-09T08:52:28Z</time>
      </trkpt>
      <trkpt lat="44.6312" lon="0.95178">
        <ele>256.81</ele>
        <time>2014-11-09T08:52:38Z</time>
      </trkpt>
      <trkpt lat="44.63134" lon="0.9518">
        <ele>258.25</ele>
        <time>2014-11-09T08:52:42Z</time>
      </trkpt>
      <trkpt lat="44.63167" lon="0.95161">
        <ele>262.58</ele>
        <time>2014-11-09T08:52:52Z</time>
      </trkpt>
      <trkpt lat="44.63193" lon="0.9514">
        <ele>266.42</ele>
        <time>2014-11-09T08:53:02Z</time>
      </trkpt>
      <trkpt lat="44.63195" lon="0.95137">
        <ele>266.9</ele>
        <time>2014-11-09T08:53:03Z</time>
      </trkpt>
      <trkpt lat="44.63219" lon="0.9512">
        <ele>267.38</ele>
        <time>2014-11-09T08:53:13Z</time>
      </trkpt>
      <trkpt lat="44.63262" lon="0.95094">
        <ele>274.59</ele>
        <time>2014-11-09T08:53:27Z</time>
      </trkpt>
      <trkpt lat="44.63293" lon="0.95073">
        <ele>274.11</ele>
        <time>2014-11-09T08:53:39Z</time>
      </trkpt>
      <trkpt lat="44.63299" lon="0.95064">
        <ele>271.71</ele>
        <time>2014-11-09T08:53:51Z</time>
      </trkpt>
      <trkpt lat="44.63299" lon="0.9506">
        <ele>259.69</ele>
        <time>2014-11-09T08:54:18Z</time>
      </trkpt>
      <trkpt lat="44.6331" lon="0.95042">
        <ele>255.85</ele>
        <time>2014-11-09T08:54:32Z</time>
      </trkpt>
      <trkpt lat="44.63312" lon="0.95038">
        <ele>255.85</ele>
        <time>2014-11-09T08:54:33Z</time>
      </trkpt>
      <trkpt lat="44.63318" lon="0.95028">
        <ele>255.37</ele>
        <time>2014-11-09T08:54:35Z</time>
      </trkpt>
      <trkpt lat="44.63325" lon="0.95017">
        <ele>254.89</ele>
        <time>2014-11-09T08:54:37Z</time>
      </trkpt>
      <trkpt lat="44.63349" lon="0.94995">
        <ele>253.44</ele>
        <time>2014-11-09T08:54:42Z</time>
      </trkpt>
      <trkpt lat="44.63382" lon="0.94918">
        <ele>248.64</ele>
        <time>2014-11-09T08:54:51Z</time>
      </trkpt>
      <trkpt lat="44.63412" lon="0.9483">
        <ele>243.35</ele>
        <time>2014-11-09T08:55:00Z</time>
      </trkpt>
      <trkpt lat="44.6343" lon="0.94802">
        <ele>242.87</ele>
        <time>2014-11-09T08:55:04Z</time>
      </trkpt>
      <trkpt lat="44.6346" lon="0.94775">
        <ele>242.87</ele>
        <time>2014-11-09T08:55:10Z</time>
      </trkpt>
      <trkpt lat="44.63501" lon="0.94764">
        <ele>242.39</ele>
        <time>2014-11-09T08:55:17Z</time>
      </trkpt>
      <trkpt lat="44.63512" lon="0.9476">
        <ele>242.39</ele>
        <time>2014-11-09T08:55:19Z</time>
      </trkpt>
      <trkpt lat="44.63553" lon="0.94758">
        <ele>241.43</ele>
        <time>2014-11-09T08:55:28Z</time>
      </trkpt>
      <trkpt lat="44.63606" lon="0.94751">
        <ele>242.87</ele>
        <time>2014-11-09T08:55:42Z</time>
      </trkpt>
      <trkpt lat="44.6366" lon="0.94761">
        <ele>247.68</ele>
        <time>2014-11-09T08:55:57Z</time>
      </trkpt>
      <trkpt lat="44.63699" lon="0.94753">
        <ele>249.12</ele>
        <time>2014-11-09T08:56:09Z</time>
      </trkpt>
      <trkpt lat="44.63722" lon="0.94719">
        <ele>248.16</ele>
        <time>2014-11-09T08:56:21Z</time>
      </trkpt>
      <trkpt lat="44.63746" lon="0.94685">
        <ele>250.56</ele>
        <time>2014-11-09T08:56:34Z</time>
      </trkpt>
      <trkpt lat="44.63775" lon="0.94643">
        <ele>250.08</ele>
        <time>2014-11-09T08:56:48Z</time>
      </trkpt>
      <trkpt lat="44.63807" lon="0.94614">
        <ele>254.41</ele>
        <time>2014-11-09T08:57:00Z</time>
      </trkpt>
      <trkpt lat="44.63843" lon="0.94578">
        <ele>264.02</ele>
        <time>2014-11-09T08:57:14Z</time>
      </trkpt>
      <trkpt lat="44.63877" lon="0.94543">
        <ele>271.71</ele>
        <time>2014-11-09T08:57:27Z</time>
      </trkpt>
      <trkpt lat="44.63905" lon="0.94506">
        <ele>266.9</ele>
        <time>2014-11-09T08:57:40Z</time>
      </trkpt>
      <trkpt lat="44.63929" lon="0.94475">
        <ele>252</ele>
        <time>2014-11-09T08:57:51Z</time>
      </trkpt>
      <trkpt lat="44.63953" lon="0.94458">
        <ele>255.37</ele>
        <time>2014-11-09T08:58:01Z</time>
      </trkpt>
      <trkpt lat="44.63993" lon="0.9444">
        <ele>269.79</ele>
        <time>2014-11-09T08:58:14Z</time>
      </trkpt>
      <trkpt lat="44.64037" lon="0.94415">
        <ele>282.77</ele>
        <time>2014-11-09T08:58:29Z</time>
      </trkpt>
      <trkpt lat="44.6404" lon="0.94412">
        <ele>283.25</ele>
        <time>2014-11-09T08:58:31Z</time>
      </trkpt>
      <trkpt lat="44.6404" lon="0.94408">
        <ele>283.73</ele>
        <time>2014-11-09T08:58:34Z</time>
      </trkpt>
      <trkpt lat="44.6404" lon="0.94408">
        <ele>287.57</ele>
        <time>2014-11-09T08:58:50Z</time>
      </trkpt>
      <trkpt lat="44.64035" lon="0.94404">
        <ele>284.69</ele>
        <time>2014-11-09T08:59:13Z</time>
      </trkpt>
      <trkpt lat="44.64008" lon="0.94399">
        <ele>285.65</ele>
        <time>2014-11-09T08:59:21Z</time>
      </trkpt>
      <trkpt lat="44.63978" lon="0.94395">
        <ele>284.69</ele>
        <time>2014-11-09T08:59:31Z</time>
      </trkpt>
      <trkpt lat="44.63959" lon="0.9438">
        <ele>282.28</ele>
        <time>2014-11-09T08:59:39Z</time>
      </trkpt>
      <trkpt lat="44.63973" lon="0.94353">
        <ele>281.8</ele>
        <time>2014-11-09T08:59:46Z</time>
      </trkpt>
      <trkpt lat="44.63978" lon="0.94335">
        <ele>281.32</ele>
        <time>2014-11-09T08:59:49Z</time>
      </trkpt>
      <trkpt lat="44.63976" lon="0.94304">
        <ele>279.88</ele>
        <time>2014-11-09T08:59:53Z</time>
      </trkpt>
      <trkpt lat="44.6398" lon="0.94259">
        <ele>276.52</ele>
        <time>2014-11-09T08:59:59Z</time>
      </trkpt>
      <trkpt lat="44.63986" lon="0.94244">
        <ele>275.07</ele>
        <time>2014-11-09T09:00:01Z</time>
      </trkpt>
      <trkpt lat="44.63993" lon="0.94197">
        <ele>271.71</ele>
        <time>2014-11-09T09:00:06Z</time>
      </trkpt>
      <trkpt lat="44.63998" lon="0.94152">
        <ele>268.35</ele>
        <time>2014-11-09T09:00:12Z</time>
      </trkpt>
      <trkpt lat="44.63992" lon="0.9412">
        <ele>266.9</ele>
        <time>2014-11-09T09:00:17Z</time>
      </trkpt>
      <trkpt lat="44.63976" lon="0.94082">
        <ele>265.94</ele>
        <time>2014-11-09T09:00:24Z</time>
      </trkpt>
      <trkpt lat="44.6397" lon="0.94023">
        <ele>267.38</ele>
        <time>2014-11-09T09:00:36Z</time>
      </trkpt>
      <trkpt lat="44.63961" lon="0.93995">
        <ele>267.86</ele>
        <time>2014-11-09T09:00:42Z</time>
      </trkpt>
      <trkpt lat="44.63959" lon="0.93974">
        <ele>267.86</ele>
        <time>2014-11-09T09:00:46Z</time>
      </trkpt>
      <trkpt lat="44.63967" lon="0.93957">
        <ele>266.9</ele>
        <time>2014-11-09T09:00:50Z</time>
      </trkpt>
      <trkpt lat="44.63981" lon="0.93912">
        <ele>265.94</ele>
        <time>2014-11-09T09:01:00Z</time>
      </trkpt>
      <trkpt lat="44.63973" lon="0.9388">
        <ele>266.9</ele>
        <time>2014-11-09T09:01:08Z</time>
      </trkpt>
      <trkpt lat="44.63967" lon="0.93854">
        <ele>266.42</ele>
        <time>2014-11-09T09:01:18Z</time>
      </trkpt>
      <trkpt lat="44.63968" lon="0.93857">
        <ele>265.94</ele>
        <time>2014-11-09T09:01:29Z</time>
      </trkpt>
      <trkpt lat="44.63967" lon="0.93858">
        <ele>266.9</ele>
        <time>2014-11-09T09:01:59Z</time>
      </trkpt>
      <trkpt lat="44.63959" lon="0.93827">
        <ele>267.38</ele>
        <time>2014-11-09T09:02:07Z</time>
      </trkpt>
      <trkpt lat="44.63944" lon="0.93791">
        <ele>268.83</ele>
        <time>2014-11-09T09:02:14Z</time>
      </trkpt>
      <trkpt lat="44.63928" lon="0.93793">
        <ele>268.83</ele>
        <time>2014-11-09T09:02:20Z</time>
      </trkpt>
      <trkpt lat="44.63925" lon="0.93799">
        <ele>268.35</ele>
        <time>2014-11-09T09:02:22Z</time>
      </trkpt>
      <trkpt lat="44.63905" lon="0.93814">
        <ele>265.94</ele>
        <time>2014-11-09T09:02:30Z</time>
      </trkpt>
      <trkpt lat="44.63897" lon="0.93807">
        <ele>264.98</ele>
        <time>2014-11-09T09:02:34Z</time>
      </trkpt>
      <trkpt lat="44.63886" lon="0.93781">
        <ele>268.35</ele>
        <time>2014-11-09T09:02:45Z</time>
      </trkpt>
      <trkpt lat="44.63874" lon="0.93755">
        <ele>274.11</ele>
        <time>2014-11-09T09:02:54Z</time>
      </trkpt>
      <trkpt lat="44.63854" lon="0.93717">
        <ele>283.73</ele>
        <time>2014-11-09T09:03:06Z</time>
      </trkpt>
      <trkpt lat="44.63839" lon="0.93709">
        <ele>287.09</ele>
        <time>2014-11-09T09:03:14Z</time>
      </trkpt>
      <trkpt lat="44.63804" lon="0.93704">
        <ele>285.17</ele>
        <time>2014-11-09T09:03:27Z</time>
      </trkpt>
      <trkpt lat="44.63792" lon="0.93661">
        <ele>284.69</ele>
        <time>2014-11-09T09:03:37Z</time>
      </trkpt>
      <trkpt lat="44.63784" lon="0.93644">
        <ele>284.21</ele>
        <time>2014-11-09T09:03:41Z</time>
      </trkpt>
      <trkpt lat="44.63785" lon="0.93615">
        <ele>284.21</ele>
        <time>2014-11-09T09:03:48Z</time>
      </trkpt>
      <trkpt lat="44.6377" lon="0.93554">
        <ele>287.09</ele>
        <time>2014-11-09T09:04:02Z</time>
      </trkpt>
      <trkpt lat="44.63766" lon="0.93537">
        <ele>288.53</ele>
        <time>2014-11-09T09:04:07Z</time>
      </trkpt>
      <trkpt lat="44.63755" lon="0.93498">
        <ele>288.53</ele>
        <time>2014-11-09T09:04:17Z</time>
      </trkpt>
      <trkpt lat="44.63753" lon="0.93482">
        <ele>289.01</ele>
        <time>2014-11-09T09:04:21Z</time>
      </trkpt>
      <trkpt lat="44.63735" lon="0.93448">
        <ele>289.97</ele>
        <time>2014-11-09T09:04:31Z</time>
      </trkpt>
      <trkpt lat="44.63709" lon="0.93423">
        <ele>288.05</ele>
        <time>2014-11-09T09:04:42Z</time>
      </trkpt>
      <trkpt lat="44.63683" lon="0.93425">
        <ele>289.01</ele>
        <time>2014-11-09T09:04:56Z</time>
      </trkpt>
      <trkpt lat="44.63669" lon="0.93432">
        <ele>286.61</ele>
        <time>2014-11-09T09:05:03Z</time>
      </trkpt>
      <trkpt lat="44.63649" lon="0.93422">
        <ele>286.13</ele>
        <time>2014-11-09T09:05:12Z</time>
      </trkpt>
      <trkpt lat="44.63618" lon="0.93404">
        <ele>287.57</ele>
        <time>2014-11-09T09:05:26Z</time>
      </trkpt>
      <trkpt lat="44.63609" lon="0.93406">
        <ele>287.09</ele>
        <time>2014-11-09T09:05:29Z</time>
      </trkpt>
      <trkpt lat="44.63593" lon="0.93429">
        <ele>284.69</ele>
        <time>2014-11-09T09:05:36Z</time>
      </trkpt>
      <trkpt lat="44.63551" lon="0.93458">
        <ele>277.96</ele>
        <time>2014-11-09T09:05:49Z</time>
      </trkpt>
      <trkpt lat="44.63511" lon="0.93462">
        <ele>277.48</ele>
        <time>2014-11-09T09:06:01Z</time>
      </trkpt>
      <trkpt lat="44.63478" lon="0.93472">
        <ele>283.25</ele>
        <time>2014-11-09T09:06:13Z</time>
      </trkpt>
      <trkpt lat="44.63445" lon="0.93482">
        <ele>287.09</ele>
        <time>2014-11-09T09:06:23Z</time>
      </trkpt>
      <trkpt lat="44.63416" lon="0.93472">
        <ele>286.13</ele>
        <time>2014-11-09T09:06:30Z</time>
      </trkpt>
      <trkpt lat="44.63393" lon="0.93482">
        <ele>284.21</ele>
        <time>2014-11-09T09:06:35Z</time>
      </trkpt>
      <trkpt lat="44.63384" lon="0.93484">
        <ele>283.73</ele>
        <time>2014-11-09T09:06:37Z</time>
      </trkpt>
      <trkpt lat="44.6337" lon="0.93469">
        <ele>282.28</ele>
        <time>2014-11-09T09:06:42Z</time>
      </trkpt>
      <trkpt lat="44.63348" lon="0.93449">
        <ele>280.84</ele>
        <time>2014-11-09T09:06:48Z</time>
      </trkpt>
      <trkpt lat="44.63336" lon="0.93442">
        <ele>279.88</ele>
        <time>2014-11-09T09:06:51Z</time>
      </trkpt>
      <trkpt lat="44.63321" lon="0.93429">
        <ele>279.4</ele>
        <time>2014-11-09T09:06:54Z</time>
      </trkpt>
      <trkpt lat="44.63308" lon="0.93388">
        <ele>277.96</ele>
        <time>2014-11-09T09:07:02Z</time>
      </trkpt>
      <trkpt lat="44.63289" lon="0.93333">
        <ele>277</ele>
        <time>2014-11-09T09:07:09Z</time>
      </trkpt>
      <trkpt lat="44.63283" lon="0.93318">
        <ele>276.52</ele>
        <time>2014-11-09T09:07:11Z</time>
      </trkpt>
      <trkpt lat="44.63249" lon="0.93284">
        <ele>275.56</ele>
        <time>2014-11-09T09:07:18Z</time>
      </trkpt>
      <trkpt lat="44.63232" lon="0.93267">
        <ele>273.15</ele>
        <time>2014-11-09T09:07:22Z</time>
      </trkpt>
      <trkpt lat="44.63169" lon="0.93246">
        <ele>265.46</ele>
        <time>2014-11-09T09:07:34Z</time>
      </trkpt>
      <trkpt lat="44.63158" lon="0.93247">
        <ele>264.02</ele>
        <time>2014-11-09T09:07:36Z</time>
      </trkpt>
      <trkpt lat="44.63089" lon="0.93286">
        <ele>256.81</ele>
        <time>2014-11-09T09:07:50Z</time>
      </trkpt>
      <trkpt lat="44.63067" lon="0.93291">
        <ele>255.85</ele>
        <time>2014-11-09T09:07:54Z</time>
      </trkpt>
      <trkpt lat="44.63028" lon="0.93285">
        <ele>255.85</ele>
        <time>2014-11-09T09:08:01Z</time>
      </trkpt>
      <trkpt lat="44.62957" lon="0.93296">
        <ele>257.29</ele>
        <time>2014-11-09T09:08:14Z</time>
      </trkpt>
      <trkpt lat="44.62885" lon="0.93311">
        <ele>257.29</ele>
        <time>2014-11-09T09:08:27Z</time>
      </trkpt>
      <trkpt lat="44.62794" lon="0.93342">
        <ele>252.48</ele>
        <time>2014-11-09T09:08:40Z</time>
      </trkpt>
      <trkpt lat="44.62772" lon="0.93352">
        <ele>250.56</ele>
        <time>2014-11-09T09:08:43Z</time>
      </trkpt>
      <trkpt lat="44.62703" lon="0.93405">
        <ele>242.39</ele>
        <time>2014-11-09T09:08:52Z</time>
      </trkpt>
      <trkpt lat="44.62643" lon="0.93406">
        <ele>235.18</ele>
        <time>2014-11-09T09:09:00Z</time>
      </trkpt>
      <trkpt lat="44.62623" lon="0.93375">
        <ele>232.3</ele>
        <time>2014-11-09T09:09:04Z</time>
      </trkpt>
      <trkpt lat="44.62607" lon="0.93311">
        <ele>230.37</ele>
        <time>2014-11-09T09:09:10Z</time>
      </trkpt>
      <trkpt lat="44.62588" lon="0.93273">
        <ele>229.41</ele>
        <time>2014-11-09T09:09:14Z</time>
      </trkpt>
      <trkpt lat="44.6253" lon="0.93199">
        <ele>227.49</ele>
        <time>2014-11-09T09:09:23Z</time>
      </trkpt>
      <trkpt lat="44.6252" lon="0.93181">
        <ele>227.49</ele>
        <time>2014-11-09T09:09:25Z</time>
      </trkpt>
      <trkpt lat="44.62498" lon="0.93114">
        <ele>228.45</ele>
        <time>2014-11-09T09:09:32Z</time>
      </trkpt>
      <trkpt lat="44.62479" lon="0.93076">
        <ele>228.93</ele>
        <time>2014-11-09T09:09:36Z</time>
      </trkpt>
      <trkpt lat="44.62418" lon="0.9299">
        <ele>232.78</ele>
        <time>2014-11-09T09:09:47Z</time>
      </trkpt>
      <trkpt lat="44.62374" lon="0.92889">
        <ele>236.14</ele>
        <time>2014-11-09T09:09:59Z</time>
      </trkpt>
      <trkpt lat="44.62355" lon="0.92811">
        <ele>240.95</ele>
        <time>2014-11-09T09:10:10Z</time>
      </trkpt>
      <trkpt lat="44.6234" lon="0.92745">
        <ele>251.04</ele>
        <time>2014-11-09T09:10:23Z</time>
      </trkpt>
      <trkpt lat="44.62324" lon="0.92693">
        <ele>264.98</ele>
        <time>2014-11-09T09:10:37Z</time>
      </trkpt>
      <trkpt lat="44.62304" lon="0.92648">
        <ele>265.46</ele>
        <time>2014-11-09T09:10:50Z</time>
      </trkpt>
      <trkpt lat="44.62284" lon="0.92608">
        <ele>267.86</ele>
        <time>2014-11-09T09:11:03Z</time>
      </trkpt>
      <trkpt lat="44.62262" lon="0.92588">
        <ele>270.27</ele>
        <time>2014-11-09T09:11:15Z</time>
      </trkpt>
      <trkpt lat="44.62263" lon="0.92567">
        <ele>264.02</ele>
        <time>2014-11-09T09:11:24Z</time>
      </trkpt>
      <trkpt lat="44.62273" lon="0.92532">
        <ele>254.89</ele>
        <time>2014-11-09T09:11:39Z</time>
      </trkpt>
      <trkpt lat="44.62286" lon="0.92486">
        <ele>247.2</ele>
        <time>2014-11-09T09:11:51Z</time>
      </trkpt>
      <trkpt lat="44.62295" lon="0.92463">
        <ele>244.79</ele>
        <time>2014-11-09T09:11:56Z</time>
      </trkpt>
      <trkpt lat="44.62297" lon="0.92437">
        <ele>244.79</ele>
        <time>2014-11-09T09:12:00Z</time>
      </trkpt>
      <trkpt lat="44.62311" lon="0.92341">
        <ele>242.39</ele>
        <time>2014-11-09T09:12:11Z</time>
      </trkpt>
      <trkpt lat="44.62311" lon="0.92325">
        <ele>242.39</ele>
        <time>2014-11-09T09:12:13Z</time>
      </trkpt>
      <trkpt lat="44.6232" lon="0.92295">
        <ele>240.95</ele>
        <time>2014-11-09T09:12:17Z</time>
      </trkpt>
      <trkpt lat="44.62338" lon="0.92269">
        <ele>239.02</ele>
        <time>2014-11-09T09:12:21Z</time>
      </trkpt>
      <trkpt lat="44.62353" lon="0.92224">
        <ele>237.1</ele>
        <time>2014-11-09T09:12:27Z</time>
      </trkpt>
      <trkpt lat="44.62368" lon="0.92157">
        <ele>235.18</ele>
        <time>2014-11-09T09:12:38Z</time>
      </trkpt>
      <trkpt lat="44.62367" lon="0.92137">
        <ele>234.7</ele>
        <time>2014-11-09T09:12:46Z</time>
      </trkpt>
      <trkpt lat="44.62366" lon="0.92128">
        <ele>234.7</ele>
        <time>2014-11-09T09:13:09Z</time>
      </trkpt>
      <trkpt lat="44.62365" lon="0.9213">
        <ele>239.02</ele>
        <time>2014-11-09T09:13:34Z</time>
      </trkpt>
      <trkpt lat="44.62363" lon="0.92128">
        <ele>239.02</ele>
        <time>2014-11-09T09:13:59Z</time>
      </trkpt>
      <trkpt lat="44.62361" lon="0.92108">
        <ele>239.99</ele>
        <time>2014-11-09T09:14:21Z</time>
      </trkpt>
      <trkpt lat="44.6236" lon="0.92084">
        <ele>239.51</ele>
        <time>2014-11-09T09:14:25Z</time>
      </trkpt>
      <trkpt lat="44.62361" lon="0.9206">
        <ele>238.06</ele>
        <time>2014-11-09T09:14:28Z</time>
      </trkpt>
      <trkpt lat="44.62363" lon="0.92024">
        <ele>235.66</ele>
        <time>2014-11-09T09:14:32Z</time>
      </trkpt>
      <trkpt lat="44.62365" lon="0.92004">
        <ele>234.22</ele>
        <time>2014-11-09T09:14:34Z</time>
      </trkpt>
      <trkpt lat="44.62382" lon="0.91935">
        <ele>227.01</ele>
        <time>2014-11-09T09:14:41Z</time>
      </trkpt>
      <trkpt lat="44.62388" lon="0.91909">
        <ele>225.09</ele>
        <time>2014-11-09T09:14:44Z</time>
      </trkpt>
      <trkpt lat="44.62396" lon="0.91887">
        <ele>224.61</ele>
        <time>2014-11-09T09:14:47Z</time>
      </trkpt>
      <trkpt lat="44.624" lon="0.91867">
        <ele>224.12</ele>
        <time>2014-11-09T09:14:50Z</time>
      </trkpt>
      <trkpt lat="44.62402" lon="0.91856">
        <ele>223.64</ele>
        <time>2014-11-09T09:14:52Z</time>
      </trkpt>
      <trkpt lat="44.62411" lon="0.91829">
        <ele>224.12</ele>
        <time>2014-11-09T09:15:00Z</time>
      </trkpt>
      <trkpt lat="44.6242" lon="0.91784">
        <ele>227.01</ele>
        <time>2014-11-09T09:15:11Z</time>
      </trkpt>
      <trkpt lat="44.62427" lon="0.91736">
        <ele>230.37</ele>
        <time>2014-11-09T09:15:21Z</time>
      </trkpt>
      <trkpt lat="44.62429" lon="0.91712">
        <ele>230.85</ele>
        <time>2014-11-09T09:15:24Z</time>
      </trkpt>
      <trkpt lat="44.6243" lon="0.91692">
        <ele>229.89</ele>
        <time>2014-11-09T09:15:26Z</time>
      </trkpt>
      <trkpt lat="44.6243" lon="0.91661">
        <ele>229.41</ele>
        <time>2014-11-09T09:15:29Z</time>
      </trkpt>
      <trkpt lat="44.62435" lon="0.91623">
        <ele>229.41</ele>
        <time>2014-11-09T09:15:34Z</time>
      </trkpt>
      <trkpt lat="44.62444" lon="0.91608">
        <ele>228.45</ele>
        <time>2014-11-09T09:15:37Z</time>
      </trkpt>
      <trkpt lat="44.62476" lon="0.91545">
        <ele>230.37</ele>
        <time>2014-11-09T09:15:50Z</time>
      </trkpt>
      <trkpt lat="44.62487" lon="0.91509">
        <ele>235.18</ele>
        <time>2014-11-09T09:16:00Z</time>
      </trkpt>
      <trkpt lat="44.62486" lon="0.91499">
        <ele>236.62</ele>
        <time>2014-11-09T09:16:04Z</time>
      </trkpt>
      <trkpt lat="44.62484" lon="0.91488">
        <ele>236.14</ele>
        <time>2014-11-09T09:16:20Z</time>
      </trkpt>
      <trkpt lat="44.62482" lon="0.91486">
        <ele>238.54</ele>
        <time>2014-11-09T09:16:39Z</time>
      </trkpt>
      <trkpt lat="44.6248" lon="0.91484">
        <ele>241.91</ele>
        <time>2014-11-09T09:17:03Z</time>
      </trkpt>
      <trkpt lat="44.62476" lon="0.91461">
        <ele>244.79</ele>
        <time>2014-11-09T09:17:14Z</time>
      </trkpt>
      <trkpt lat="44.62458" lon="0.91409">
        <ele>248.64</ele>
        <time>2014-11-09T09:17:27Z</time>
      </trkpt>
      <trkpt lat="44.62423" lon="0.9133">
        <ele>239.51</ele>
        <time>2014-11-09T09:17:41Z</time>
      </trkpt>
      <trkpt lat="44.62398" lon="0.91272">
        <ele>237.1</ele>
        <time>2014-11-09T09:17:49Z</time>
      </trkpt>
      <trkpt lat="44.62358" lon="0.91187">
        <ele>238.06</ele>
        <time>2014-11-09T09:18:04Z</time>
      </trkpt>
      <trkpt lat="44.62355" lon="0.91182">
        <ele>238.54</ele>
        <time>2014-11-09T09:18:05Z</time>
      </trkpt>
      <trkpt lat="44.62321" lon="0.91134">
        <ele>239.99</ele>
        <time>2014-11-09T09:18:15Z</time>
      </trkpt>
      <trkpt lat="44.62296" lon="0.91096">
        <ele>240.95</ele>
        <time>2014-11-09T09:18:22Z</time>
      </trkpt>
      <trkpt lat="44.62274" lon="0.91064">
        <ele>242.39</ele>
        <time>2014-11-09T09:18:28Z</time>
      </trkpt>
      <trkpt lat="44.62234" lon="0.90972">
        <ele>244.31</ele>
        <time>2014-11-09T09:18:44Z</time>
      </trkpt>
      <trkpt lat="44.62225" lon="0.90938">
        <ele>247.68</ele>
        <time>2014-11-09T09:18:50Z</time>
      </trkpt>
      <trkpt lat="44.62208" lon="0.90854">
        <ele>255.85</ele>
        <time>2014-11-09T09:19:05Z</time>
      </trkpt>
      <trkpt lat="44.62195" lon="0.90776">
        <ele>252</ele>
        <time>2014-11-09T09:19:19Z</time>
      </trkpt>
      <trkpt lat="44.62173" lon="0.90675">
        <ele>248.64</ele>
        <time>2014-11-09T09:19:35Z</time>
      </trkpt>
      <trkpt lat="44.62136" lon="0.90576">
        <ele>244.31</ele>
        <time>2014-11-09T09:19:47Z</time>
      </trkpt>
      <trkpt lat="44.62108" lon="0.90534">
        <ele>241.43</ele>
        <time>2014-11-09T09:19:52Z</time>
      </trkpt>
      <trkpt lat="44.62089" lon="0.90495">
        <ele>239.02</ele>
        <time>2014-11-09T09:19:56Z</time>
      </trkpt>
      <trkpt lat="44.62062" lon="0.9046">
        <ele>237.1</ele>
        <time>2014-11-09T09:20:00Z</time>
      </trkpt>
      <trkpt lat="44.62024" lon="0.90431">
        <ele>234.22</ele>
        <time>2014-11-09T09:20:05Z</time>
      </trkpt>
      <trkpt lat="44.61979" lon="0.90368">
        <ele>227.97</ele>
        <time>2014-11-09T09:20:13Z</time>
      </trkpt>
      <trkpt lat="44.61952" lon="0.90349">
        <ele>226.53</ele>
        <time>2014-11-09T09:20:17Z</time>
      </trkpt>
      <trkpt lat="44.61939" lon="0.90342">
        <ele>226.05</ele>
        <time>2014-11-09T09:20:19Z</time>
      </trkpt>
      <trkpt lat="44.61861" lon="0.90279">
        <ele>220.76</ele>
        <time>2014-11-09T09:20:31Z</time>
      </trkpt>
      <trkpt lat="44.61855" lon="0.90272">
        <ele>220.28</ele>
        <time>2014-11-09T09:20:32Z</time>
      </trkpt>
      <trkpt lat="44.61798" lon="0.90163">
        <ele>210.67</ele>
        <time>2014-11-09T09:20:42Z</time>
      </trkpt>
      <trkpt lat="44.61755" lon="0.90064">
        <ele>206.34</ele>
        <time>2014-11-09T09:20:52Z</time>
      </trkpt>
      <trkpt lat="44.61741" lon="0.90029">
        <ele>206.82</ele>
        <time>2014-11-09T09:21:00Z</time>
      </trkpt>
      <trkpt lat="44.61726" lon="0.89993">
        <ele>206.34</ele>
        <time>2014-11-09T09:21:13Z</time>
      </trkpt>
      <trkpt lat="44.61696" lon="0.89923">
        <ele>204.42</ele>
        <time>2014-11-09T09:21:27Z</time>
      </trkpt>
      <trkpt lat="44.61687" lon="0.89899">
        <ele>203.94</ele>
        <time>2014-11-09T09:21:31Z</time>
      </trkpt>
      <trkpt lat="44.61642" lon="0.89793">
        <ele>200.57</ele>
        <time>2014-11-09T09:21:48Z</time>
      </trkpt>
      <trkpt lat="44.61633" lon="0.89775">
        <ele>200.09</ele>
        <time>2014-11-09T09:21:51Z</time>
      </trkpt>
      <trkpt lat="44.61616" lon="0.89737">
        <ele>199.61</ele>
        <time>2014-11-09T09:21:57Z</time>
      </trkpt>
      <trkpt lat="44.61606" lon="0.897">
        <ele>198.17</ele>
        <time>2014-11-09T09:22:02Z</time>
      </trkpt>
      <trkpt lat="44.61597" lon="0.89603">
        <ele>196.73</ele>
        <time>2014-11-09T09:22:14Z</time>
      </trkpt>
      <trkpt lat="44.61617" lon="0.89494">
        <ele>191.92</ele>
        <time>2014-11-09T09:22:28Z</time>
      </trkpt>
      <trkpt lat="44.61618" lon="0.89477">
        <ele>191.44</ele>
        <time>2014-11-09T09:22:30Z</time>
      </trkpt>
      <trkpt lat="44.61608" lon="0.89351">
        <ele>189.04</ele>
        <time>2014-11-09T09:22:44Z</time>
      </trkpt>
      <trkpt lat="44.6157" lon="0.8923">
        <ele>189.52</ele>
        <time>2014-11-09T09:22:59Z</time>
      </trkpt>
      <trkpt lat="44.61554" lon="0.89129">
        <ele>190</ele>
        <time>2014-11-09T09:23:12Z</time>
      </trkpt>
      <trkpt lat="44.61546" lon="0.89092">
        <ele>190.48</ele>
        <time>2014-11-09T09:23:17Z</time>
      </trkpt>
      <trkpt lat="44.61521" lon="0.89021">
        <ele>190</ele>
        <time>2014-11-09T09:23:29Z</time>
      </trkpt>
      <trkpt lat="44.61514" lon="0.89011">
        <ele>189.52</ele>
        <time>2014-11-09T09:23:31Z</time>
      </trkpt>
      <trkpt lat="44.61492" lon="0.8899">
        <ele>189.04</ele>
        <time>2014-11-09T09:23:36Z</time>
      </trkpt>
      <trkpt lat="44.61422" lon="0.88933">
        <ele>189.04</ele>
        <time>2014-11-09T09:23:52Z</time>
      </trkpt>
      <trkpt lat="44.61351" lon="0.88863">
        <ele>186.63</ele>
        <time>2014-11-09T09:24:07Z</time>
      </trkpt>
      <trkpt lat="44.61286" lon="0.88808">
        <ele>187.11</ele>
        <time>2014-11-09T09:24:19Z</time>
      </trkpt>
      <trkpt lat="44.61221" lon="0.88753">
        <ele>189.52</ele>
        <time>2014-11-09T09:24:31Z</time>
      </trkpt>
      <trkpt lat="44.61178" lon="0.8871">
        <ele>187.11</ele>
        <time>2014-11-09T09:24:42Z</time>
      </trkpt>
      <trkpt lat="44.6114" lon="0.88676">
        <ele>188.56</ele>
        <time>2014-11-09T09:24:55Z</time>
      </trkpt>
      <trkpt lat="44.61114" lon="0.88657">
        <ele>188.08</ele>
        <time>2014-11-09T09:25:03Z</time>
      </trkpt>
      <trkpt lat="44.61107" lon="0.88649">
        <ele>187.11</ele>
        <time>2014-11-09T09:25:05Z</time>
      </trkpt>
      <trkpt lat="44.6107" lon="0.88603">
        <ele>186.15</ele>
        <time>2014-11-09T09:25:16Z</time>
      </trkpt>
      <trkpt lat="44.61036" lon="0.88562">
        <ele>190.96</ele>
        <time>2014-11-09T09:25:28Z</time>
      </trkpt>
      <trkpt lat="44.61011" lon="0.88517">
        <ele>194.8</ele>
        <time>2014-11-09T09:25:41Z</time>
      </trkpt>
      <trkpt lat="44.61008" lon="0.88512">
        <ele>194.8</ele>
        <time>2014-11-09T09:25:44Z</time>
      </trkpt>
      <trkpt lat="44.61008" lon="0.88495">
        <ele>195.77</ele>
        <time>2014-11-09T09:25:51Z</time>
      </trkpt>
      <trkpt lat="44.60989" lon="0.88461">
        <ele>195.28</ele>
        <time>2014-11-09T09:26:03Z</time>
      </trkpt>
      <trkpt lat="44.60973" lon="0.88435">
        <ele>198.17</ele>
        <time>2014-11-09T09:26:12Z</time>
      </trkpt>
      <trkpt lat="44.60965" lon="0.88427">
        <ele>199.61</ele>
        <time>2014-11-09T09:26:15Z</time>
      </trkpt>
      <trkpt lat="44.6095" lon="0.88413">
        <ele>202.01</ele>
        <time>2014-11-09T09:26:23Z</time>
      </trkpt>
      <trkpt lat="44.60945" lon="0.88411">
        <ele>202.98</ele>
        <time>2014-11-09T09:26:25Z</time>
      </trkpt>
      <trkpt lat="44.60942" lon="0.88381">
        <ele>203.46</ele>
        <time>2014-11-09T09:26:34Z</time>
      </trkpt>
      <trkpt lat="44.60918" lon="0.88366">
        <ele>204.9</ele>
        <time>2014-11-09T09:26:43Z</time>
      </trkpt>
      <trkpt lat="44.60866" lon="0.88349">
        <ele>200.57</ele>
        <time>2014-11-09T09:26:59Z</time>
      </trkpt>
      <trkpt lat="44.60852" lon="0.88346">
        <ele>199.61</ele>
        <time>2014-11-09T09:27:03Z</time>
      </trkpt>
      <trkpt lat="44.60846" lon="0.88281">
        <ele>194.32</ele>
        <time>2014-11-09T09:27:12Z</time>
      </trkpt>
      <trkpt lat="44.60846" lon="0.88242">
        <ele>190.48</ele>
        <time>2014-11-09T09:27:16Z</time>
      </trkpt>
      <trkpt lat="44.60847" lon="0.88203">
        <ele>187.11</ele>
        <time>2014-11-09T09:27:20Z</time>
      </trkpt>
      <trkpt lat="44.60841" lon="0.88173">
        <ele>184.23</ele>
        <time>2014-11-09T09:27:23Z</time>
      </trkpt>
      <trkpt lat="44.60816" lon="0.88157">
        <ele>179.9</ele>
        <time>2014-11-09T09:27:28Z</time>
      </trkpt>
      <trkpt lat="44.60779" lon="0.8816">
        <ele>175.1</ele>
        <time>2014-11-09T09:27:33Z</time>
      </trkpt>
      <trkpt lat="44.6074" lon="0.88143">
        <ele>174.62</ele>
        <time>2014-11-09T09:27:38Z</time>
      </trkpt>
      <trkpt lat="44.60715" lon="0.88138">
        <ele>173.66</ele>
        <time>2014-11-09T09:27:41Z</time>
      </trkpt>
      <trkpt lat="44.60687" lon="0.88116">
        <ele>173.17</ele>
        <time>2014-11-09T09:27:45Z</time>
      </trkpt>
      <trkpt lat="44.60656" lon="0.88058">
        <ele>169.81</ele>
        <time>2014-11-09T09:27:51Z</time>
      </trkpt>
      <trkpt lat="44.60626" lon="0.8799">
        <ele>166.93</ele>
        <time>2014-11-09T09:27:57Z</time>
      </trkpt>
      <trkpt lat="44.60613" lon="0.87953">
        <ele>165.96</ele>
        <time>2014-11-09T09:28:00Z</time>
      </trkpt>
      <trkpt lat="44.60595" lon="0.87901">
        <ele>165</ele>
        <time>2014-11-09T09:28:06Z</time>
      </trkpt>
      <trkpt lat="44.60591" lon="0.87894">
        <ele>169.33</ele>
        <time>2014-11-09T09:28:16Z</time>
      </trkpt>
      <trkpt lat="44.60589" lon="0.8789">
        <ele>173.17</ele>
        <time>2014-11-09T09:28:45Z</time>
      </trkpt>
      <trkpt lat="44.60587" lon="0.87885">
        <ele>178.94</ele>
        <time>2014-11-09T09:29:07Z</time>
      </trkpt>
      <trkpt lat="44.60585" lon="0.87887">
        <ele>177.98</ele>
        <time>2014-11-09T09:29:23Z</time>
      </trkpt>
      <trkpt lat="44.60582" lon="0.87886">
        <ele>180.87</ele>
        <time>2014-11-09T09:30:06Z</time>
      </trkpt>
      <trkpt lat="44.60587" lon="0.87886">
        <ele>181.35</ele>
        <time>2014-11-09T09:30:19Z</time>
      </trkpt>
      <trkpt lat="44.60589" lon="0.87885">
        <ele>181.35</ele>
        <time>2014-11-09T09:30:47Z</time>
      </trkpt>
      <trkpt lat="44.60589" lon="0.87885">
        <ele>181.83</ele>
        <time>2014-11-09T09:31:10Z</time>
      </trkpt>
      <trkpt lat="44.6059" lon="0.87888">
        <ele>181.35</ele>
        <time>2014-11-09T09:31:16Z</time>
      </trkpt>
      <trkpt lat="44.60593" lon="0.87892">
        <ele>180.38</ele>
        <time>2014-11-09T09:31:30Z</time>
      </trkpt>
      <trkpt lat="44.6059" lon="0.87893">
        <ele>179.9</ele>
        <time>2014-11-09T09:31:54Z</time>
      </trkpt>
      <trkpt lat="44.60589" lon="0.87896">
        <ele>182.79</ele>
        <time>2014-11-09T09:32:20Z</time>
      </trkpt>
      <trkpt lat="44.60588" lon="0.87897">
        <ele>180.87</ele>
        <time>2014-11-09T09:32:52Z</time>
      </trkpt>
      <trkpt lat="44.60591" lon="0.87895">
        <ele>179.9</ele>
        <time>2014-11-09T09:33:17Z</time>
      </trkpt>
      <trkpt lat="44.6059" lon="0.87893">
        <ele>182.79</ele>
        <time>2014-11-09T09:33:45Z</time>
      </trkpt>
      <trkpt lat="44.60592" lon="0.87894">
        <ele>183.27</ele>
        <time>2014-11-09T09:34:13Z</time>
      </trkpt>
      <trkpt lat="44.60593" lon="0.87891">
        <ele>183.27</ele>
        <time>2014-11-09T09:34:39Z</time>
      </trkpt>
      <trkpt lat="44.60593" lon="0.8789">
        <ele>182.31</ele>
        <time>2014-11-09T09:35:11Z</time>
      </trkpt>
      <trkpt lat="44.60593" lon="0.87889">
        <ele>181.83</ele>
        <time>2014-11-09T09:35:37Z</time>
      </trkpt>
      <trkpt lat="44.60591" lon="0.87895">
        <ele>185.67</ele>
        <time>2014-11-09T09:36:17Z</time>
      </trkpt>
      <trkpt lat="44.60593" lon="0.87894">
        <ele>183.27</ele>
        <time>2014-11-09T09:36:53Z</time>
      </trkpt>
      <trkpt lat="44.60593" lon="0.87895">
        <ele>181.83</ele>
        <time>2014-11-09T09:37:20Z</time>
      </trkpt>
      <trkpt lat="44.60589" lon="0.87892">
        <ele>180.87</ele>
        <time>2014-11-09T09:37:52Z</time>
      </trkpt>
      <trkpt lat="44.6059" lon="0.87889">
        <ele>179.9</ele>
        <time>2014-11-09T09:38:16Z</time>
      </trkpt>
      <trkpt lat="44.6059" lon="0.87887">
        <ele>179.42</ele>
        <time>2014-11-09T09:38:49Z</time>
      </trkpt>
      <trkpt lat="44.6059" lon="0.87885">
        <ele>179.42</ele>
        <time>2014-11-09T09:39:15Z</time>
      </trkpt>
      <trkpt lat="44.60589" lon="0.87883">
        <ele>177.98</ele>
        <time>2014-11-09T09:39:30Z</time>
      </trkpt>
      <trkpt lat="44.60589" lon="0.87883">
        <ele>179.42</ele>
        <time>2014-11-09T09:39:50Z</time>
      </trkpt>
      <trkpt lat="44.6059" lon="0.87882">
        <ele>180.38</ele>
        <time>2014-11-09T09:40:10Z</time>
      </trkpt>
      <trkpt lat="44.60591" lon="0.87881">
        <ele>180.87</ele>
        <time>2014-11-09T09:40:25Z</time>
      </trkpt>
      <trkpt lat="44.60599" lon="0.87868">
        <ele>178.94</ele>
        <time>2014-11-09T09:40:31Z</time>
      </trkpt>
      <trkpt lat="44.60628" lon="0.87817">
        <ele>175.58</ele>
        <time>2014-11-09T09:40:45Z</time>
      </trkpt>
      <trkpt lat="44.60652" lon="0.87789">
        <ele>172.69</ele>
        <time>2014-11-09T09:40:53Z</time>
      </trkpt>
      <trkpt lat="44.60681" lon="0.87765">
        <ele>169.81</ele>
        <time>2014-11-09T09:41:00Z</time>
      </trkpt>
      <trkpt lat="44.60716" lon="0.87649">
        <ele>163.08</ele>
        <time>2014-11-09T09:41:11Z</time>
      </trkpt>
      <trkpt lat="44.60743" lon="0.87606">
        <ele>163.56</ele>
        <time>2014-11-09T09:41:20Z</time>
      </trkpt>
      <trkpt lat="44.60754" lon="0.87608">
        <ele>162.6</ele>
        <time>2014-11-09T09:41:23Z</time>
      </trkpt>
      <trkpt lat="44.60789" lon="0.87604">
        <ele>162.12</ele>
        <time>2014-11-09T09:41:30Z</time>
      </trkpt>
      <trkpt lat="44.60823" lon="0.87577">
        <ele>161.64</ele>
        <time>2014-11-09T09:41:36Z</time>
      </trkpt>
      <trkpt lat="44.60854" lon="0.87546">
        <ele>158.27</ele>
        <time>2014-11-09T09:41:41Z</time>
      </trkpt>
      <trkpt lat="44.6087" lon="0.8748">
        <ele>151.54</ele>
        <time>2014-11-09T09:41:49Z</time>
      </trkpt>
      <trkpt lat="44.60876" lon="0.87449">
        <ele>148.66</ele>
        <time>2014-11-09T09:41:59Z</time>
      </trkpt>
      <trkpt lat="44.60898" lon="0.8739">
        <ele>150.1</ele>
        <time>2014-11-09T09:42:11Z</time>
      </trkpt>
      <trkpt lat="44.6091" lon="0.87379">
        <ele>151.06</ele>
        <time>2014-11-09T09:42:15Z</time>
      </trkpt>
      <trkpt lat="44.60947" lon="0.87321">
        <ele>153.47</ele>
        <time>2014-11-09T09:42:30Z</time>
      </trkpt>
      <trkpt lat="44.60973" lon="0.87274">
        <ele>152.51</ele>
        <time>2014-11-09T09:42:43Z</time>
      </trkpt>
      <trkpt lat="44.60991" lon="0.87233">
        <ele>154.91</ele>
        <time>2014-11-09T09:42:54Z</time>
      </trkpt>
      <trkpt lat="44.61017" lon="0.87177">
        <ele>155.39</ele>
        <time>2014-11-09T09:43:07Z</time>
      </trkpt>
      <trkpt lat="44.61033" lon="0.87147">
        <ele>156.35</ele>
        <time>2014-11-09T09:43:17Z</time>
      </trkpt>
      <trkpt lat="44.61034" lon="0.87142">
        <ele>158.27</ele>
        <time>2014-11-09T09:43:31Z</time>
      </trkpt>
      <trkpt lat="44.61034" lon="0.87142">
        <ele>158.27</ele>
        <time>2014-11-09T09:43:34Z</time>
      </trkpt>
      <trkpt lat="44.61034" lon="0.87115">
        <ele>158.27</ele>
        <time>2014-11-09T09:43:44Z</time>
      </trkpt>
      <trkpt lat="44.61032" lon="0.87075">
        <ele>159.72</ele>
        <time>2014-11-09T09:43:56Z</time>
      </trkpt>
      <trkpt lat="44.61028" lon="0.87054">
        <ele>162.6</ele>
        <time>2014-11-09T09:44:01Z</time>
      </trkpt>
      <trkpt lat="44.61034" lon="0.8702">
        <ele>167.41</ele>
        <time>2014-11-09T09:44:09Z</time>
      </trkpt>
      <trkpt lat="44.61044" lon="0.86972">
        <ele>170.77</ele>
        <time>2014-11-09T09:44:21Z</time>
      </trkpt>
      <trkpt lat="44.61054" lon="0.86936">
        <ele>172.69</ele>
        <time>2014-11-09T09:44:30Z</time>
      </trkpt>
      <trkpt lat="44.61062" lon="0.86921">
        <ele>173.66</ele>
        <time>2014-11-09T09:44:36Z</time>
      </trkpt>
      <trkpt lat="44.61069" lon="0.86902">
        <ele>172.69</ele>
        <time>2014-11-09T09:44:43Z</time>
      </trkpt>
      <trkpt lat="44.61075" lon="0.86882">
        <ele>172.69</ele>
        <time>2014-11-09T09:44:48Z</time>
      </trkpt>
      <trkpt lat="44.61076" lon="0.8687">
        <ele>173.17</ele>
        <time>2014-11-09T09:44:50Z</time>
      </trkpt>
      <trkpt lat="44.61088" lon="0.86835">
        <ele>175.1</ele>
        <time>2014-11-09T09:44:56Z</time>
      </trkpt>
      <trkpt lat="44.61102" lon="0.8678">
        <ele>177.98</ele>
        <time>2014-11-09T09:45:06Z</time>
      </trkpt>
      <trkpt lat="44.61103" lon="0.86774">
        <ele>177.98</ele>
        <time>2014-11-09T09:45:07Z</time>
      </trkpt>
      <trkpt lat="44.61115" lon="0.86728">
        <ele>180.87</ele>
        <time>2014-11-09T09:45:17Z</time>
      </trkpt>
      <trkpt lat="44.61123" lon="0.86699">
        <ele>180.38</ele>
        <time>2014-11-09T09:45:25Z</time>
      </trkpt>
      <trkpt lat="44.61133" lon="0.86646">
        <ele>180.87</ele>
        <time>2014-11-09T09:45:36Z</time>
      </trkpt>
      <trkpt lat="44.61144" lon="0.86598">
        <ele>182.31</ele>
        <time>2014-11-09T09:45:47Z</time>
      </trkpt>
      <trkpt lat="44.61163" lon="0.86524">
        <ele>184.23</ele>
        <time>2014-11-09T09:46:04Z</time>
      </trkpt>
      <trkpt lat="44.61168" lon="0.86512">
        <ele>184.71</ele>
        <time>2014-11-09T09:46:08Z</time>
      </trkpt>
      <trkpt lat="44.61173" lon="0.86497">
        <ele>184.71</ele>
        <time>2014-11-09T09:46:13Z</time>
      </trkpt>
      <trkpt lat="44.61208" lon="0.86443">
        <ele>184.23</ele>
        <time>2014-11-09T09:46:27Z</time>
      </trkpt>
      <trkpt lat="44.61227" lon="0.86393">
        <ele>184.23</ele>
        <time>2014-11-09T09:46:40Z</time>
      </trkpt>
      <trkpt lat="44.6124" lon="0.86398">
        <ele>185.67</ele>
        <time>2014-11-09T09:46:46Z</time>
      </trkpt>
      <trkpt lat="44.61259" lon="0.86414">
        <ele>188.56</ele>
        <time>2014-11-09T09:46:58Z</time>
      </trkpt>
      <trkpt lat="44.6128" lon="0.86435">
        <ele>189.04</ele>
        <time>2014-11-09T09:47:13Z</time>
      </trkpt>
      <trkpt lat="44.61307" lon="0.86458">
        <ele>188.56</ele>
        <time>2014-11-09T09:47:30Z</time>
      </trkpt>
      <trkpt lat="44.61343" lon="0.86491">
        <ele>187.11</ele>
        <time>2014-11-09T09:47:46Z</time>
      </trkpt>
      <trkpt lat="44.61371" lon="0.8652">
        <ele>187.59</ele>
        <time>2014-11-09T09:48:00Z</time>
      </trkpt>
      <trkpt lat="44.61373" lon="0.86522">
        <ele>187.59</ele>
        <time>2014-11-09T09:48:01Z</time>
      </trkpt>
      <trkpt lat="44.61381" lon="0.86517">
        <ele>187.11</ele>
        <time>2014-11-09T09:48:06Z</time>
      </trkpt>
      <trkpt lat="44.61407" lon="0.86467">
        <ele>184.71</ele>
        <time>2014-11-09T09:48:19Z</time>
      </trkpt>
      <trkpt lat="44.61417" lon="0.86451">
        <ele>183.27</ele>
        <time>2014-11-09T09:48:23Z</time>
      </trkpt>
      <trkpt lat="44.61424" lon="0.86433">
        <ele>181.35</ele>
        <time>2014-11-09T09:48:26Z</time>
      </trkpt>
      <trkpt lat="44.61443" lon="0.86406">
        <ele>178.94</ele>
        <time>2014-11-09T09:48:30Z</time>
      </trkpt>
      <trkpt lat="44.61458" lon="0.86344">
        <ele>175.1</ele>
        <time>2014-11-09T09:48:37Z</time>
      </trkpt>
      <trkpt lat="44.61462" lon="0.86337">
        <ele>175.1</ele>
        <time>2014-11-09T09:48:38Z</time>
      </trkpt>
      <trkpt lat="44.61501" lon="0.86277">
        <ele>173.17</ele>
        <time>2014-11-09T09:48:46Z</time>
      </trkpt>
      <trkpt lat="44.61516" lon="0.86248">
        <ele>172.21</ele>
        <time>2014-11-09T09:48:49Z</time>
      </trkpt>
      <trkpt lat="44.6159" lon="0.86129">
        <ele>167.89</ele>
        <time>2014-11-09T09:49:02Z</time>
      </trkpt>
      <trkpt lat="44.6164" lon="0.86057">
        <ele>165.96</ele>
        <time>2014-11-09T09:49:11Z</time>
      </trkpt>
      <trkpt lat="44.6165" lon="0.86042">
        <ele>164.52</ele>
        <time>2014-11-09T09:49:20Z</time>
      </trkpt>
      <trkpt lat="44.61651" lon="0.8604">
        <ele>164.04</ele>
        <time>2014-11-09T09:49:36Z</time>
      </trkpt>
      <trkpt lat="44.6165" lon="0.86039">
        <ele>164.04</ele>
        <time>2014-11-09T09:49:46Z</time>
      </trkpt>
      <trkpt lat="44.61623" lon="0.86011">
        <ele>162.6</ele>
        <time>2014-11-09T09:49:59Z</time>
      </trkpt>
      <trkpt lat="44.61602" lon="0.85992">
        <ele>161.64</ele>
        <time>2014-11-09T09:50:05Z</time>
      </trkpt>
      <trkpt lat="44.61577" lon="0.8596">
        <ele>161.64</ele>
        <time>2014-11-09T09:50:12Z</time>
      </trkpt>
      <trkpt lat="44.6159" lon="0.85926">
        <ele>158.75</ele>
        <time>2014-11-09T09:50:22Z</time>
      </trkpt>
      <trkpt lat="44.61608" lon="0.85903">
        <ele>161.64</ele>
        <time>2014-11-09T09:50:35Z</time>
      </trkpt>
      <trkpt lat="44.61613" lon="0.85895">
        <ele>165</ele>
        <time>2014-11-09T09:50:42Z</time>
      </trkpt>
      <trkpt lat="44.61616" lon="0.85891">
        <ele>166.45</ele>
        <time>2014-11-09T09:50:45Z</time>
      </trkpt>
      <trkpt lat="44.61633" lon="0.85878">
        <ele>172.69</ele>
        <time>2014-11-09T09:50:59Z</time>
      </trkpt>
      <trkpt lat="44.61653" lon="0.85869">
        <ele>180.38</ele>
        <time>2014-11-09T09:51:13Z</time>
      </trkpt>
      <trkpt lat="44.61655" lon="0.85866">
        <ele>178.94</ele>
        <time>2014-11-09T09:51:29Z</time>
      </trkpt>
      <trkpt lat="44.61658" lon="0.85863">
        <ele>179.42</ele>
        <time>2014-11-09T09:52:00Z</time>
      </trkpt>
      <trkpt lat="44.61655" lon="0.85849">
        <ele>180.38</ele>
        <time>2014-11-09T09:52:17Z</time>
      </trkpt>
      <trkpt lat="44.61655" lon="0.85818">
        <ele>180.38</ele>
        <time>2014-11-09T09:52:23Z</time>
      </trkpt>
      <trkpt lat="44.61657" lon="0.85808">
        <ele>179.9</ele>
        <time>2014-11-09T09:52:25Z</time>
      </trkpt>
      <trkpt lat="44.61663" lon="0.85783">
        <ele>177.5</ele>
        <time>2014-11-09T09:52:29Z</time>
      </trkpt>
      <trkpt lat="44.61665" lon="0.85769">
        <ele>175.58</ele>
        <time>2014-11-09T09:52:31Z</time>
      </trkpt>
      <trkpt lat="44.61668" lon="0.85741">
        <ele>172.69</ele>
        <time>2014-11-09T09:52:35Z</time>
      </trkpt>
      <trkpt lat="44.61688" lon="0.85681">
        <ele>166.45</ele>
        <time>2014-11-09T09:52:43Z</time>
      </trkpt>
      <trkpt lat="44.61708" lon="0.85603">
        <ele>156.83</ele>
        <time>2014-11-09T09:52:54Z</time>
      </trkpt>
      <trkpt lat="44.6172" lon="0.85572">
        <ele>152.51</ele>
        <time>2014-11-09T09:52:59Z</time>
      </trkpt>
      <trkpt lat="44.61724" lon="0.85562">
        <ele>150.58</ele>
        <time>2014-11-09T09:53:01Z</time>
      </trkpt>
      <trkpt lat="44.61737" lon="0.85502">
        <ele>145.78</ele>
        <time>2014-11-09T09:53:09Z</time>
      </trkpt>
      <trkpt lat="44.61724" lon="0.85487">
        <ele>144.34</ele>
        <time>2014-11-09T09:53:15Z</time>
      </trkpt>
      <trkpt lat="44.61702" lon="0.85479">
        <ele>144.82</ele>
        <time>2014-11-09T09:53:21Z</time>
      </trkpt>
      <trkpt lat="44.61702" lon="0.85465">
        <ele>145.3</ele>
        <time>2014-11-09T09:53:27Z</time>
      </trkpt>
      <trkpt lat="44.61704" lon="0.85448">
        <ele>144.82</ele>
        <time>2014-11-09T09:53:33Z</time>
      </trkpt>
      <trkpt lat="44.617" lon="0.85431">
        <ele>146.26</ele>
        <time>2014-11-09T09:53:41Z</time>
      </trkpt>
      <trkpt lat="44.61693" lon="0.85409">
        <ele>148.66</ele>
        <time>2014-11-09T09:53:51Z</time>
      </trkpt>
      <trkpt lat="44.61686" lon="0.85395">
        <ele>152.99</ele>
        <time>2014-11-09T09:53:58Z</time>
      </trkpt>
      <trkpt lat="44.61673" lon="0.85361">
        <ele>158.27</ele>
        <time>2014-11-09T09:54:12Z</time>
      </trkpt>
      <trkpt lat="44.61669" lon="0.85353">
        <ele>159.24</ele>
        <time>2014-11-09T09:54:15Z</time>
      </trkpt>
      <trkpt lat="44.61665" lon="0.85341">
        <ele>161.16</ele>
        <time>2014-11-09T09:54:20Z</time>
      </trkpt>
      <trkpt lat="44.61659" lon="0.85332">
        <ele>163.08</ele>
        <time>2014-11-09T09:54:24Z</time>
      </trkpt>
      <trkpt lat="44.61643" lon="0.8529">
        <ele>167.89</ele>
        <time>2014-11-09T09:54:39Z</time>
      </trkpt>
      <trkpt lat="44.61621" lon="0.85235">
        <ele>163.08</ele>
        <time>2014-11-09T09:54:54Z</time>
      </trkpt>
      <trkpt lat="44.61594" lon="0.85164">
        <ele>160.2</ele>
        <time>2014-11-09T09:55:09Z</time>
      </trkpt>
      <trkpt lat="44.61581" lon="0.85129">
        <ele>161.16</ele>
        <time>2014-11-09T09:55:19Z</time>
      </trkpt>
      <trkpt lat="44.61577" lon="0.85125">
        <ele>162.6</ele>
        <time>2014-11-09T09:55:24Z</time>
      </trkpt>
      <trkpt lat="44.61576" lon="0.85119">
        <ele>164.52</ele>
        <time>2014-11-09T09:55:38Z</time>
      </trkpt>
      <trkpt lat="44.61576" lon="0.85114">
        <ele>167.41</ele>
        <time>2014-11-09T09:56:00Z</time>
      </trkpt>
      <trkpt lat="44.61592" lon="0.85078">
        <ele>168.37</ele>
        <time>2014-11-09T09:56:11Z</time>
      </trkpt>
      <trkpt lat="44.61577" lon="0.85075">
        <ele>168.37</ele>
        <time>2014-11-09T09:56:19Z</time>
      </trkpt>
      <trkpt lat="44.61556" lon="0.85093">
        <ele>170.77</ele>
        <time>2014-11-09T09:56:30Z</time>
      </trkpt>
      <trkpt lat="44.61553" lon="0.85094">
        <ele>170.77</ele>
        <time>2014-11-09T09:56:31Z</time>
      </trkpt>
      <trkpt lat="44.61532" lon="0.85087">
        <ele>171.25</ele>
        <time>2014-11-09T09:56:42Z</time>
      </trkpt>
      <trkpt lat="44.6153" lon="0.85078">
        <ele>170.77</ele>
        <time>2014-11-09T09:56:46Z</time>
      </trkpt>
      <trkpt lat="44.61541" lon="0.8508">
        <ele>171.25</ele>
        <time>2014-11-09T09:56:56Z</time>
      </trkpt>
      <trkpt lat="44.61541" lon="0.85082">
        <ele>171.73</ele>
        <time>2014-11-09T09:56:58Z</time>
      </trkpt>
      <trkpt lat="44.61558" lon="0.85087">
        <ele>173.17</ele>
        <time>2014-11-09T09:57:08Z</time>
      </trkpt>
      <trkpt lat="44.61574" lon="0.85083">
        <ele>175.1</ele>
        <time>2014-11-09T09:57:16Z</time>
      </trkpt>
      <trkpt lat="44.61578" lon="0.85092">
        <ele>175.58</ele>
        <time>2014-11-09T09:57:20Z</time>
      </trkpt>
      <trkpt lat="44.61566" lon="0.85137">
        <ele>173.66</ele>
        <time>2014-11-09T09:57:34Z</time>
      </trkpt>
      <trkpt lat="44.61533" lon="0.85194">
        <ele>175.58</ele>
        <time>2014-11-09T09:57:49Z</time>
      </trkpt>
      <trkpt lat="44.61521" lon="0.85205">
        <ele>176.54</ele>
        <time>2014-11-09T09:57:53Z</time>
      </trkpt>
      <trkpt lat="44.61492" lon="0.85207">
        <ele>178.94</ele>
        <time>2014-11-09T09:58:03Z</time>
      </trkpt>
      <trkpt lat="44.61487" lon="0.85217">
        <ele>179.42</ele>
        <time>2014-11-09T09:58:09Z</time>
      </trkpt>
      <trkpt lat="44.6148" lon="0.85212">
        <ele>178.94</ele>
        <time>2014-11-09T09:58:13Z</time>
      </trkpt>
      <trkpt lat="44.61477" lon="0.85207">
        <ele>178.46</ele>
        <time>2014-11-09T09:58:15Z</time>
      </trkpt>
      <trkpt lat="44.61456" lon="0.85176">
        <ele>173.66</ele>
        <time>2014-11-09T09:58:25Z</time>
      </trkpt>
      <trkpt lat="44.61449" lon="0.8517">
        <ele>173.66</ele>
        <time>2014-11-09T09:58:28Z</time>
      </trkpt>
      <trkpt lat="44.61437" lon="0.85166">
        <ele>173.66</ele>
        <time>2014-11-09T09:58:35Z</time>
      </trkpt>
      <trkpt lat="44.61406" lon="0.8514">
        <ele>172.69</ele>
        <time>2014-11-09T09:58:43Z</time>
      </trkpt>
      <trkpt lat="44.61398" lon="0.85134">
        <ele>171.73</ele>
        <time>2014-11-09T09:58:45Z</time>
      </trkpt>
      <trkpt lat="44.61393" lon="0.85128">
        <ele>168.85</ele>
        <time>2014-11-09T09:58:57Z</time>
      </trkpt>
      <trkpt lat="44.61392" lon="0.85127">
        <ele>172.21</ele>
        <time>2014-11-09T09:59:23Z</time>
      </trkpt>
      <trkpt lat="44.61391" lon="0.85124">
        <ele>172.69</ele>
        <time>2014-11-09T09:59:44Z</time>
      </trkpt>
      <trkpt lat="44.61388" lon="0.85123">
        <ele>172.69</ele>
        <time>2014-11-09T10:00:11Z</time>
      </trkpt>
      <trkpt lat="44.61389" lon="0.85119">
        <ele>172.69</ele>
        <time>2014-11-09T10:00:39Z</time>
      </trkpt>
      <trkpt lat="44.61388" lon="0.8512">
        <ele>173.66</ele>
        <time>2014-11-09T10:01:09Z</time>
      </trkpt>
      <trkpt lat="44.61386" lon="0.8512">
        <ele>175.1</ele>
        <time>2014-11-09T10:01:36Z</time>
      </trkpt>
      <trkpt lat="44.61386" lon="0.85121">
        <ele>177.98</ele>
        <time>2014-11-09T10:01:58Z</time>
      </trkpt>
      <trkpt lat="44.61386" lon="0.85122">
        <ele>177.5</ele>
        <time>2014-11-09T10:02:11Z</time>
      </trkpt>
      <trkpt lat="44.61386" lon="0.8512">
        <ele>181.83</ele>
        <time>2014-11-09T10:02:31Z</time>
      </trkpt>
      <trkpt lat="44.61388" lon="0.85113">
        <ele>181.83</ele>
        <time>2014-11-09T10:02:51Z</time>
      </trkpt>
      <trkpt lat="44.61393" lon="0.85064">
        <ele>175.58</ele>
        <time>2014-11-09T10:03:02Z</time>
      </trkpt>
      <trkpt lat="44.614" lon="0.85037">
        <ele>173.17</ele>
        <time>2014-11-09T10:03:07Z</time>
      </trkpt>
      <trkpt lat="44.61405" lon="0.85025">
        <ele>172.21</ele>
        <time>2014-11-09T10:03:09Z</time>
      </trkpt>
      <trkpt lat="44.61415" lon="0.8501">
        <ele>172.21</ele>
        <time>2014-11-09T10:03:12Z</time>
      </trkpt>
      <trkpt lat="44.61414" lon="0.84985">
        <ele>171.25</ele>
        <time>2014-11-09T10:03:16Z</time>
      </trkpt>
      <trkpt lat="44.61404" lon="0.84966">
        <ele>170.77</ele>
        <time>2014-11-09T10:03:19Z</time>
      </trkpt>
      <trkpt lat="44.61399" lon="0.84954">
        <ele>170.29</ele>
        <time>2014-11-09T10:03:21Z</time>
      </trkpt>
      <trkpt lat="44.61378" lon="0.84896">
        <ele>167.41</ele>
        <time>2014-11-09T10:03:30Z</time>
      </trkpt>
      <trkpt lat="44.61371" lon="0.84858">
        <ele>164.04</ele>
        <time>2014-11-09T10:03:35Z</time>
      </trkpt>
      <trkpt lat="44.61368" lon="0.84844">
        <ele>163.08</ele>
        <time>2014-11-09T10:03:37Z</time>
      </trkpt>
      <trkpt lat="44.61364" lon="0.84814">
        <ele>161.64</ele>
        <time>2014-11-09T10:03:41Z</time>
      </trkpt>
      <trkpt lat="44.61336" lon="0.84784">
        <ele>158.75</ele>
        <time>2014-11-09T10:03:48Z</time>
      </trkpt>
      <trkpt lat="44.6132" lon="0.84742">
        <ele>152.99</ele>
        <time>2014-11-09T10:03:55Z</time>
      </trkpt>
      <trkpt lat="44.61312" lon="0.84726">
        <ele>151.54</ele>
        <time>2014-11-09T10:03:57Z</time>
      </trkpt>
      <trkpt lat="44.61289" lon="0.84693">
        <ele>146.26</ele>
        <time>2014-11-09T10:04:02Z</time>
      </trkpt>
      <trkpt lat="44.61259" lon="0.84689">
        <ele>142.89</ele>
        <time>2014-11-09T10:04:07Z</time>
      </trkpt>
      <trkpt lat="44.61243" lon="0.84693">
        <ele>142.41</ele>
        <time>2014-11-09T10:04:10Z</time>
      </trkpt>
      <trkpt lat="44.61219" lon="0.84689">
        <ele>144.34</ele>
        <time>2014-11-09T10:04:14Z</time>
      </trkpt>
      <trkpt lat="44.61204" lon="0.84689">
        <ele>146.26</ele>
        <time>2014-11-09T10:04:17Z</time>
      </trkpt>
      <trkpt lat="44.61185" lon="0.84671">
        <ele>148.66</ele>
        <time>2014-11-09T10:04:22Z</time>
      </trkpt>
      <trkpt lat="44.61161" lon="0.84648">
        <ele>148.66</ele>
        <time>2014-11-09T10:04:28Z</time>
      </trkpt>
      <trkpt lat="44.61142" lon="0.8463">
        <ele>147.7</ele>
        <time>2014-11-09T10:04:32Z</time>
      </trkpt>
      <trkpt lat="44.61118" lon="0.84617">
        <ele>146.26</ele>
        <time>2014-11-09T10:04:36Z</time>
      </trkpt>
      <trkpt lat="44.61113" lon="0.84582">
        <ele>143.85</ele>
        <time>2014-11-09T10:04:41Z</time>
      </trkpt>
      <trkpt lat="44.61105" lon="0.84533">
        <ele>141.45</ele>
        <time>2014-11-09T10:04:47Z</time>
      </trkpt>
      <trkpt lat="44.61087" lon="0.84493">
        <ele>137.61</ele>
        <time>2014-11-09T10:04:52Z</time>
      </trkpt>
      <trkpt lat="44.61068" lon="0.84479">
        <ele>134.24</ele>
        <time>2014-11-09T10:04:57Z</time>
      </trkpt>
      <trkpt lat="44.61064" lon="0.84493">
        <ele>133.76</ele>
        <time>2014-11-09T10:05:00Z</time>
      </trkpt>
      <trkpt lat="44.61057" lon="0.84514">
        <ele>134.24</ele>
        <time>2014-11-09T10:05:04Z</time>
      </trkpt>
      <trkpt lat="44.61044" lon="0.84568">
        <ele>141.93</ele>
        <time>2014-11-09T10:05:17Z</time>
      </trkpt>
      <trkpt lat="44.61035" lon="0.84604">
        <ele>147.22</ele>
        <time>2014-11-09T10:05:27Z</time>
      </trkpt>
      <trkpt lat="44.61028" lon="0.84643">
        <ele>153.95</ele>
        <time>2014-11-09T10:05:38Z</time>
      </trkpt>
      <trkpt lat="44.61008" lon="0.84684">
        <ele>158.75</ele>
        <time>2014-11-09T10:05:51Z</time>
      </trkpt>
      <trkpt lat="44.61005" lon="0.8469">
        <ele>158.75</ele>
        <time>2014-11-09T10:05:53Z</time>
      </trkpt>
      <trkpt lat="44.60996" lon="0.84694">
        <ele>159.72</ele>
        <time>2014-11-09T10:05:57Z</time>
      </trkpt>
      <trkpt lat="44.60985" lon="0.84691">
        <ele>159.72</ele>
        <time>2014-11-09T10:06:01Z</time>
      </trkpt>
      <trkpt lat="44.60948" lon="0.84676">
        <ele>158.27</ele>
        <time>2014-11-09T10:06:14Z</time>
      </trkpt>
      <trkpt lat="44.60915" lon="0.84703">
        <ele>158.27</ele>
        <time>2014-11-09T10:06:26Z</time>
      </trkpt>
      <trkpt lat="44.60896" lon="0.84719">
        <ele>158.75</ele>
        <time>2014-11-09T10:06:34Z</time>
      </trkpt>
      <trkpt lat="44.60885" lon="0.84703">
        <ele>159.24</ele>
        <time>2014-11-09T10:06:41Z</time>
      </trkpt>
      <trkpt lat="44.60881" lon="0.84676">
        <ele>158.27</ele>
        <time>2014-11-09T10:06:48Z</time>
      </trkpt>
      <trkpt lat="44.60871" lon="0.84657">
        <ele>154.91</ele>
        <time>2014-11-09T10:06:55Z</time>
      </trkpt>
      <trkpt lat="44.60863" lon="0.84653">
        <ele>155.39</ele>
        <time>2014-11-09T10:06:57Z</time>
      </trkpt>
      <trkpt lat="44.60835" lon="0.84636">
        <ele>155.39</ele>
        <time>2014-11-09T10:07:07Z</time>
      </trkpt>
      <trkpt lat="44.6081" lon="0.84602">
        <ele>154.43</ele>
        <time>2014-11-09T10:07:19Z</time>
      </trkpt>
      <trkpt lat="44.60793" lon="0.84565">
        <ele>151.54</ele>
        <time>2014-11-09T10:07:32Z</time>
      </trkpt>
      <trkpt lat="44.6076" lon="0.84521">
        <ele>156.83</ele>
        <time>2014-11-09T10:07:46Z</time>
      </trkpt>
      <trkpt lat="44.60733" lon="0.84485">
        <ele>159.72</ele>
        <time>2014-11-09T10:07:58Z</time>
      </trkpt>
      <trkpt lat="44.60701" lon="0.84451">
        <ele>160.2</ele>
        <time>2014-11-09T10:08:10Z</time>
      </trkpt>
      <trkpt lat="44.60668" lon="0.84406">
        <ele>158.27</ele>
        <time>2014-11-09T10:08:24Z</time>
      </trkpt>
      <trkpt lat="44.60655" lon="0.84385">
        <ele>156.35</ele>
        <time>2014-11-09T10:08:28Z</time>
      </trkpt>
      <trkpt lat="44.60639" lon="0.84367">
        <ele>153.47</ele>
        <time>2014-11-09T10:08:31Z</time>
      </trkpt>
      <trkpt lat="44.60639" lon="0.84316">
        <ele>146.26</ele>
        <time>2014-11-09T10:08:37Z</time>
      </trkpt>
      <trkpt lat="44.60636" lon="0.84307">
        <ele>145.3</ele>
        <time>2014-11-09T10:08:38Z</time>
      </trkpt>
      <trkpt lat="44.60623" lon="0.84278">
        <ele>142.41</ele>
        <time>2014-11-09T10:08:41Z</time>
      </trkpt>
      <trkpt lat="44.60614" lon="0.84248">
        <ele>140.49</ele>
        <time>2014-11-09T10:08:44Z</time>
      </trkpt>
      <trkpt lat="44.60596" lon="0.84218">
        <ele>138.57</ele>
        <time>2014-11-09T10:08:48Z</time>
      </trkpt>
      <trkpt lat="44.60583" lon="0.84208">
        <ele>137.61</ele>
        <time>2014-11-09T10:08:51Z</time>
      </trkpt>
      <trkpt lat="44.60588" lon="0.84187">
        <ele>137.13</ele>
        <time>2014-11-09T10:08:56Z</time>
      </trkpt>
      <trkpt lat="44.60599" lon="0.84158">
        <ele>139.05</ele>
        <time>2014-11-09T10:09:03Z</time>
      </trkpt>
      <trkpt lat="44.60598" lon="0.8415">
        <ele>140.01</ele>
        <time>2014-11-09T10:09:13Z</time>
      </trkpt>
      <trkpt lat="44.60595" lon="0.84147">
        <ele>142.41</ele>
        <time>2014-11-09T10:09:32Z</time>
      </trkpt>
      <trkpt lat="44.60597" lon="0.84146">
        <ele>142.41</ele>
        <time>2014-11-09T10:09:56Z</time>
      </trkpt>
      <trkpt lat="44.60597" lon="0.84148">
        <ele>143.85</ele>
        <time>2014-11-09T10:10:19Z</time>
      </trkpt>
      <trkpt lat="44.60596" lon="0.84147">
        <ele>144.34</ele>
        <time>2014-11-09T10:10:38Z</time>
      </trkpt>
      <trkpt lat="44.60595" lon="0.84145">
        <ele>144.82</ele>
        <time>2014-11-09T10:10:56Z</time>
      </trkpt>
      <trkpt lat="44.60591" lon="0.84138">
        <ele>145.3</ele>
        <time>2014-11-09T10:11:07Z</time>
      </trkpt>
      <trkpt lat="44.60564" lon="0.84119">
        <ele>144.82</ele>
        <time>2014-11-09T10:11:21Z</time>
      </trkpt>
      <trkpt lat="44.60516" lon="0.84089">
        <ele>147.22</ele>
        <time>2014-11-09T10:11:39Z</time>
      </trkpt>
      <trkpt lat="44.60495" lon="0.84048">
        <ele>147.7</ele>
        <time>2014-11-09T10:11:51Z</time>
      </trkpt>
      <trkpt lat="44.60484" lon="0.84042">
        <ele>147.7</ele>
        <time>2014-11-09T10:11:55Z</time>
      </trkpt>
      <trkpt lat="44.60419" lon="0.84074">
        <ele>146.26</ele>
        <time>2014-11-09T10:12:11Z</time>
      </trkpt>
      <trkpt lat="44.60414" lon="0.84076">
        <ele>146.26</ele>
        <time>2014-11-09T10:12:12Z</time>
      </trkpt>
      <trkpt lat="44.60361" lon="0.84079">
        <ele>145.78</ele>
        <time>2014-11-09T10:12:23Z</time>
      </trkpt>
      <trkpt lat="44.60299" lon="0.841">
        <ele>146.26</ele>
        <time>2014-11-09T10:12:39Z</time>
      </trkpt>
      <trkpt lat="44.6026" lon="0.84098">
        <ele>142.89</ele>
        <time>2014-11-09T10:12:49Z</time>
      </trkpt>
      <trkpt lat="44.60236" lon="0.84088">
        <ele>139.53</ele>
        <time>2014-11-09T10:12:53Z</time>
      </trkpt>
      <trkpt lat="44.60218" lon="0.84074">
        <ele>136.16</ele>
        <time>2014-11-09T10:12:56Z</time>
      </trkpt>
      <trkpt lat="44.60189" lon="0.84095">
        <ele>130.88</ele>
        <time>2014-11-09T10:13:03Z</time>
      </trkpt>
      <trkpt lat="44.60172" lon="0.84104">
        <ele>126.55</ele>
        <time>2014-11-09T10:13:08Z</time>
      </trkpt>
      <trkpt lat="44.60155" lon="0.84142">
        <ele>121.74</ele>
        <time>2014-11-09T10:13:14Z</time>
      </trkpt>
      <trkpt lat="44.60151" lon="0.84144">
        <ele>121.26</ele>
        <time>2014-11-09T10:13:15Z</time>
      </trkpt>
      <trkpt lat="44.60143" lon="0.84151">
        <ele>120.78</ele>
        <time>2014-11-09T10:13:26Z</time>
      </trkpt>
      <trkpt lat="44.60144" lon="0.84151">
        <ele>122.22</ele>
        <time>2014-11-09T10:13:48Z</time>
      </trkpt>
      <trkpt lat="44.60143" lon="0.84152">
        <ele>122.22</ele>
        <time>2014-11-09T10:14:05Z</time>
      </trkpt>
      <trkpt lat="44.60132" lon="0.84192">
        <ele>121.74</ele>
        <time>2014-11-09T10:14:17Z</time>
      </trkpt>
      <trkpt lat="44.60113" lon="0.84263">
        <ele>125.11</ele>
        <time>2014-11-09T10:14:34Z</time>
      </trkpt>
      <trkpt lat="44.60112" lon="0.8427">
        <ele>125.59</ele>
        <time>2014-11-09T10:14:36Z</time>
      </trkpt>
      <trkpt lat="44.60109" lon="0.84278">
        <ele>126.55</ele>
        <time>2014-11-09T10:14:45Z</time>
      </trkpt>
      <trkpt lat="44.6011" lon="0.8428">
        <ele>126.07</ele>
        <time>2014-11-09T10:14:59Z</time>
      </trkpt>
      <trkpt lat="44.60109" lon="0.84281">
        <ele>124.15</ele>
        <time>2014-11-09T10:15:27Z</time>
      </trkpt>
      <trkpt lat="44.60109" lon="0.84282">
        <ele>125.11</ele>
        <time>2014-11-09T10:15:56Z</time>
      </trkpt>
      <trkpt lat="44.60108" lon="0.84281">
        <ele>127.51</ele>
        <time>2014-11-09T10:16:27Z</time>
      </trkpt>
      <trkpt lat="44.60107" lon="0.84281">
        <ele>127.51</ele>
        <time>2014-11-09T10:17:04Z</time>
      </trkpt>
      <trkpt lat="44.60108" lon="0.8428">
        <ele>127.51</ele>
        <time>2014-11-09T10:17:25Z</time>
      </trkpt>
      <trkpt lat="44.60108" lon="0.8428">
        <ele>127.51</ele>
        <time>2014-11-09T10:17:26Z</time>
      </trkpt>
      <trkpt lat="44.60109" lon="0.84282">
        <ele>127.51</ele>
        <time>2014-11-09T10:17:28Z</time>
      </trkpt>
      <trkpt lat="44.60115" lon="0.84318">
        <ele>128.47</ele>
        <time>2014-11-09T10:17:42Z</time>
      </trkpt>
      <trkpt lat="44.60123" lon="0.84357">
        <ele>132.32</ele>
        <time>2014-11-09T10:17:55Z</time>
      </trkpt>
      <trkpt lat="44.60121" lon="0.844">
        <ele>135.68</ele>
        <time>2014-11-09T10:18:09Z</time>
      </trkpt>
      <trkpt lat="44.6012" lon="0.84437">
        <ele>140.49</ele>
        <time>2014-11-09T10:18:22Z</time>
      </trkpt>
      <trkpt lat="44.60123" lon="0.84463">
        <ele>142.89</ele>
        <time>2014-11-09T10:18:31Z</time>
      </trkpt>
      <trkpt lat="44.60128" lon="0.84486">
        <ele>145.3</ele>
        <time>2014-11-09T10:18:39Z</time>
      </trkpt>
      <trkpt lat="44.60141" lon="0.84534">
        <ele>149.14</ele>
        <time>2014-11-09T10:18:56Z</time>
      </trkpt>
      <trkpt lat="44.60152" lon="0.84581">
        <ele>152.03</ele>
        <time>2014-11-09T10:19:12Z</time>
      </trkpt>
      <trkpt lat="44.60131" lon="0.84625">
        <ele>154.43</ele>
        <time>2014-11-09T10:19:27Z</time>
      </trkpt>
      <trkpt lat="44.60102" lon="0.8469">
        <ele>157.79</ele>
        <time>2014-11-09T10:19:47Z</time>
      </trkpt>
      <trkpt lat="44.60087" lon="0.84759">
        <ele>161.64</ele>
        <time>2014-11-09T10:20:06Z</time>
      </trkpt>
      <trkpt lat="44.60086" lon="0.84816">
        <ele>165.96</ele>
        <time>2014-11-09T10:20:21Z</time>
      </trkpt>
      <trkpt lat="44.60086" lon="0.84886">
        <ele>169.81</ele>
        <time>2014-11-09T10:20:39Z</time>
      </trkpt>
      <trkpt lat="44.60078" lon="0.84959">
        <ele>173.17</ele>
        <time>2014-11-09T10:20:56Z</time>
      </trkpt>
      <trkpt lat="44.60062" lon="0.85027">
        <ele>173.17</ele>
        <time>2014-11-09T10:21:11Z</time>
      </trkpt>
      <trkpt lat="44.60044" lon="0.85142">
        <ele>174.14</ele>
        <time>2014-11-09T10:21:29Z</time>
      </trkpt>
      <trkpt lat="44.60017" lon="0.85248">
        <ele>175.58</ele>
        <time>2014-11-09T10:21:46Z</time>
      </trkpt>
      <trkpt lat="44.5997" lon="0.85353">
        <ele>175.58</ele>
        <time>2014-11-09T10:22:04Z</time>
      </trkpt>
      <trkpt lat="44.59919" lon="0.85451">
        <ele>178.46</ele>
        <time>2014-11-09T10:22:21Z</time>
      </trkpt>
      <trkpt lat="44.59911" lon="0.85475">
        <ele>179.42</ele>
        <time>2014-11-09T10:22:25Z</time>
      </trkpt>
      <trkpt lat="44.59904" lon="0.85498">
        <ele>180.38</ele>
        <time>2014-11-09T10:22:29Z</time>
      </trkpt>
      <trkpt lat="44.59878" lon="0.85557">
        <ele>182.79</ele>
        <time>2014-11-09T10:22:41Z</time>
      </trkpt>
      <trkpt lat="44.59851" lon="0.85643">
        <ele>183.27</ele>
        <time>2014-11-09T10:22:57Z</time>
      </trkpt>
      <trkpt lat="44.5985" lon="0.85649">
        <ele>183.75</ele>
        <time>2014-11-09T10:22:58Z</time>
      </trkpt>
      <trkpt lat="44.59835" lon="0.85747">
        <ele>177.5</ele>
        <time>2014-11-09T10:23:10Z</time>
      </trkpt>
      <trkpt lat="44.59835" lon="0.85754">
        <ele>177.02</ele>
        <time>2014-11-09T10:23:11Z</time>
      </trkpt>
      <trkpt lat="44.59833" lon="0.85774">
        <ele>176.06</ele>
        <time>2014-11-09T10:23:19Z</time>
      </trkpt>
      <trkpt lat="44.59834" lon="0.85778">
        <ele>178.94</ele>
        <time>2014-11-09T10:23:49Z</time>
      </trkpt>
      <trkpt lat="44.59835" lon="0.8578">
        <ele>181.83</ele>
        <time>2014-11-09T10:24:14Z</time>
      </trkpt>
      <trkpt lat="44.59834" lon="0.85781">
        <ele>181.83</ele>
        <time>2014-11-09T10:24:36Z</time>
      </trkpt>
      <trkpt lat="44.59833" lon="0.85813">
        <ele>182.31</ele>
        <time>2014-11-09T10:24:44Z</time>
      </trkpt>
      <trkpt lat="44.59831" lon="0.85856">
        <ele>178.46</ele>
        <time>2014-11-09T10:24:51Z</time>
      </trkpt>
      <trkpt lat="44.59833" lon="0.85882">
        <ele>175.58</ele>
        <time>2014-11-09T10:24:55Z</time>
      </trkpt>
      <trkpt lat="44.59834" lon="0.85903">
        <ele>173.17</ele>
        <time>2014-11-09T10:24:58Z</time>
      </trkpt>
      <trkpt lat="44.59842" lon="0.85948">
        <ele>168.85</ele>
        <time>2014-11-09T10:25:04Z</time>
      </trkpt>
      <trkpt lat="44.5986" lon="0.85984">
        <ele>168.37</ele>
        <time>2014-11-09T10:25:09Z</time>
      </trkpt>
      <trkpt lat="44.59866" lon="0.86014">
        <ele>168.37</ele>
        <time>2014-11-09T10:25:13Z</time>
      </trkpt>
      <trkpt lat="44.59869" lon="0.86044">
        <ele>168.85</ele>
        <time>2014-11-09T10:25:17Z</time>
      </trkpt>
      <trkpt lat="44.59881" lon="0.86104">
        <ele>168.85</ele>
        <time>2014-11-09T10:25:27Z</time>
      </trkpt>
      <trkpt lat="44.59882" lon="0.86135">
        <ele>169.81</ele>
        <time>2014-11-09T10:25:32Z</time>
      </trkpt>
      <trkpt lat="44.59879" lon="0.86149">
        <ele>170.29</ele>
        <time>2014-11-09T10:25:35Z</time>
      </trkpt>
      <trkpt lat="44.59889" lon="0.86164">
        <ele>171.73</ele>
        <time>2014-11-09T10:25:39Z</time>
      </trkpt>
      <trkpt lat="44.59902" lon="0.86181">
        <ele>173.66</ele>
        <time>2014-11-09T10:25:44Z</time>
      </trkpt>
      <trkpt lat="44.59936" lon="0.86182">
        <ele>177.98</ele>
        <time>2014-11-09T10:25:54Z</time>
      </trkpt>
      <trkpt lat="44.59967" lon="0.86172">
        <ele>186.15</ele>
        <time>2014-11-09T10:26:05Z</time>
      </trkpt>
      <trkpt lat="44.60014" lon="0.86172">
        <ele>190</ele>
        <time>2014-11-09T10:26:17Z</time>
      </trkpt>
      <trkpt lat="44.60059" lon="0.86173">
        <ele>189.04</ele>
        <time>2014-11-09T10:26:29Z</time>
      </trkpt>
      <trkpt lat="44.60082" lon="0.86162">
        <ele>189.52</ele>
        <time>2014-11-09T10:26:35Z</time>
      </trkpt>
      <trkpt lat="44.60158" lon="0.86132">
        <ele>184.71</ele>
        <time>2014-11-09T10:26:50Z</time>
      </trkpt>
      <trkpt lat="44.60176" lon="0.86124">
        <ele>183.75</ele>
        <time>2014-11-09T10:26:54Z</time>
      </trkpt>
      <trkpt lat="44.60203" lon="0.86147">
        <ele>180.87</ele>
        <time>2014-11-09T10:27:01Z</time>
      </trkpt>
      <trkpt lat="44.60206" lon="0.86152">
        <ele>180.38</ele>
        <time>2014-11-09T10:27:02Z</time>
      </trkpt>
      <trkpt lat="44.60248" lon="0.86202">
        <ele>178.46</ele>
        <time>2014-11-09T10:27:14Z</time>
      </trkpt>
      <trkpt lat="44.60263" lon="0.86228">
        <ele>177.5</ele>
        <time>2014-11-09T10:27:19Z</time>
      </trkpt>
      <trkpt lat="44.60277" lon="0.86262">
        <ele>174.14</ele>
        <time>2014-11-09T10:27:23Z</time>
      </trkpt>
      <trkpt lat="44.60296" lon="0.86308">
        <ele>169.33</ele>
        <time>2014-11-09T10:27:28Z</time>
      </trkpt>
      <trkpt lat="44.60303" lon="0.86343">
        <ele>165.48</ele>
        <time>2014-11-09T10:27:32Z</time>
      </trkpt>
      <trkpt lat="44.60295" lon="0.86372">
        <ele>163.08</ele>
        <time>2014-11-09T10:27:37Z</time>
      </trkpt>
      <trkpt lat="44.60282" lon="0.86397">
        <ele>162.12</ele>
        <time>2014-11-09T10:27:41Z</time>
      </trkpt>
      <trkpt lat="44.60272" lon="0.86419">
        <ele>161.16</ele>
        <time>2014-11-09T10:27:44Z</time>
      </trkpt>
      <trkpt lat="44.60264" lon="0.8643">
        <ele>160.68</ele>
        <time>2014-11-09T10:27:46Z</time>
      </trkpt>
      <trkpt lat="44.60253" lon="0.86456">
        <ele>160.2</ele>
        <time>2014-11-09T10:27:50Z</time>
      </trkpt>
      <trkpt lat="44.60249" lon="0.86484">
        <ele>159.24</ele>
        <time>2014-11-09T10:27:55Z</time>
      </trkpt>
      <trkpt lat="44.60263" lon="0.86498">
        <ele>159.24</ele>
        <time>2014-11-09T10:27:59Z</time>
      </trkpt>
      <trkpt lat="44.60285" lon="0.86504">
        <ele>159.24</ele>
        <time>2014-11-09T10:28:03Z</time>
      </trkpt>
      <trkpt lat="44.60303" lon="0.86523">
        <ele>158.27</ele>
        <time>2014-11-09T10:28:07Z</time>
      </trkpt>
      <trkpt lat="44.60314" lon="0.86545">
        <ele>158.75</ele>
        <time>2014-11-09T10:28:10Z</time>
      </trkpt>
      <trkpt lat="44.60325" lon="0.86578">
        <ele>161.16</ele>
        <time>2014-11-09T10:28:15Z</time>
      </trkpt>
      <trkpt lat="44.60326" lon="0.86593">
        <ele>161.64</ele>
        <time>2014-11-09T10:28:17Z</time>
      </trkpt>
      <trkpt lat="44.60327" lon="0.86665">
        <ele>162.12</ele>
        <time>2014-11-09T10:28:29Z</time>
      </trkpt>
      <trkpt lat="44.60325" lon="0.86679">
        <ele>162.12</ele>
        <time>2014-11-09T10:28:31Z</time>
      </trkpt>
      <trkpt lat="44.60312" lon="0.86729">
        <ele>160.2</ele>
        <time>2014-11-09T10:28:38Z</time>
      </trkpt>
      <trkpt lat="44.60314" lon="0.86761">
        <ele>160.2</ele>
        <time>2014-11-09T10:28:42Z</time>
      </trkpt>
      <trkpt lat="44.60318" lon="0.86812">
        <ele>161.16</ele>
        <time>2014-11-09T10:28:53Z</time>
      </trkpt>
      <trkpt lat="44.60322" lon="0.86861">
        <ele>161.16</ele>
        <time>2014-11-09T10:29:06Z</time>
      </trkpt>
      <trkpt lat="44.6032" lon="0.86916">
        <ele>167.41</ele>
        <time>2014-11-09T10:29:22Z</time>
      </trkpt>
      <trkpt lat="44.60319" lon="0.86945">
        <ele>170.77</ele>
        <time>2014-11-09T10:29:32Z</time>
      </trkpt>
      <trkpt lat="44.60317" lon="0.86954">
        <ele>171.25</ele>
        <time>2014-11-09T10:29:36Z</time>
      </trkpt>
      <trkpt lat="44.60313" lon="0.86962">
        <ele>172.21</ele>
        <time>2014-11-09T10:29:40Z</time>
      </trkpt>
      <trkpt lat="44.60293" lon="0.86974">
        <ele>177.5</ele>
        <time>2014-11-09T10:29:54Z</time>
      </trkpt>
      <trkpt lat="44.60285" lon="0.86979">
        <ele>177.5</ele>
        <time>2014-11-09T10:30:01Z</time>
      </trkpt>
      <trkpt lat="44.60278" lon="0.86983">
        <ele>177.5</ele>
        <time>2014-11-09T10:30:06Z</time>
      </trkpt>
      <trkpt lat="44.60248" lon="0.86998">
        <ele>176.06</ele>
        <time>2014-11-09T10:30:18Z</time>
      </trkpt>
      <trkpt lat="44.60225" lon="0.87007">
        <ele>175.1</ele>
        <time>2014-11-09T10:30:24Z</time>
      </trkpt>
      <trkpt lat="44.60193" lon="0.87021">
        <ele>173.66</ele>
        <time>2014-11-09T10:30:32Z</time>
      </trkpt>
      <trkpt lat="44.60158" lon="0.87051">
        <ele>172.69</ele>
        <time>2014-11-09T10:30:41Z</time>
      </trkpt>
      <trkpt lat="44.60141" lon="0.87064">
        <ele>172.69</ele>
        <time>2014-11-09T10:30:46Z</time>
      </trkpt>
      <trkpt lat="44.6013" lon="0.87068">
        <ele>172.69</ele>
        <time>2014-11-09T10:30:49Z</time>
      </trkpt>
      <trkpt lat="44.60116" lon="0.87072">
        <ele>172.21</ele>
        <time>2014-11-09T10:30:52Z</time>
      </trkpt>
      <trkpt lat="44.6009" lon="0.87082">
        <ele>170.29</ele>
        <time>2014-11-09T10:30:57Z</time>
      </trkpt>
      <trkpt lat="44.60028" lon="0.87097">
        <ele>161.16</ele>
        <time>2014-11-09T10:31:09Z</time>
      </trkpt>
      <trkpt lat="44.60023" lon="0.87099">
        <ele>160.2</ele>
        <time>2014-11-09T10:31:11Z</time>
      </trkpt>
      <trkpt lat="44.60027" lon="0.87118">
        <ele>157.79</ele>
        <time>2014-11-09T10:31:21Z</time>
      </trkpt>
      <trkpt lat="44.60026" lon="0.87118">
        <ele>156.35</ele>
        <time>2014-11-09T10:31:42Z</time>
      </trkpt>
      <trkpt lat="44.60027" lon="0.87118">
        <ele>156.35</ele>
        <time>2014-11-09T10:32:05Z</time>
      </trkpt>
      <trkpt lat="44.60027" lon="0.8712">
        <ele>156.35</ele>
        <time>2014-11-09T10:32:24Z</time>
      </trkpt>
      <trkpt lat="44.60027" lon="0.87118">
        <ele>155.87</ele>
        <time>2014-11-09T10:32:47Z</time>
      </trkpt>
      <trkpt lat="44.60028" lon="0.87121">
        <ele>156.35</ele>
        <time>2014-11-09T10:33:16Z</time>
      </trkpt>
      <trkpt lat="44.60027" lon="0.87154">
        <ele>154.91</ele>
        <time>2014-11-09T10:33:26Z</time>
      </trkpt>
      <trkpt lat="44.6003" lon="0.87248">
        <ele>154.91</ele>
        <time>2014-11-09T10:33:44Z</time>
      </trkpt>
      <trkpt lat="44.60032" lon="0.87279">
        <ele>154.91</ele>
        <time>2014-11-09T10:33:50Z</time>
      </trkpt>
      <trkpt lat="44.60019" lon="0.87293">
        <ele>155.39</ele>
        <time>2014-11-09T10:33:55Z</time>
      </trkpt>
      <trkpt lat="44.59979" lon="0.87275">
        <ele>162.12</ele>
        <time>2014-11-09T10:34:09Z</time>
      </trkpt>
      <trkpt lat="44.59958" lon="0.87239">
        <ele>169.81</ele>
        <time>2014-11-09T10:34:22Z</time>
      </trkpt>
      <trkpt lat="44.59933" lon="0.87212">
        <ele>170.77</ele>
        <time>2014-11-09T10:34:32Z</time>
      </trkpt>
      <trkpt lat="44.59895" lon="0.87191">
        <ele>168.85</ele>
        <time>2014-11-09T10:34:41Z</time>
      </trkpt>
      <trkpt lat="44.59878" lon="0.87195">
        <ele>169.81</ele>
        <time>2014-11-09T10:34:45Z</time>
      </trkpt>
      <trkpt lat="44.59844" lon="0.87237">
        <ele>171.73</ele>
        <time>2014-11-09T10:34:57Z</time>
      </trkpt>
      <trkpt lat="44.59798" lon="0.87311">
        <ele>169.81</ele>
        <time>2014-11-09T10:35:13Z</time>
      </trkpt>
      <trkpt lat="44.59759" lon="0.87377">
        <ele>172.21</ele>
        <time>2014-11-09T10:35:29Z</time>
      </trkpt>
      <trkpt lat="44.59754" lon="0.87385">
        <ele>172.21</ele>
        <time>2014-11-09T10:35:31Z</time>
      </trkpt>
      <trkpt lat="44.59727" lon="0.87426">
        <ele>173.66</ele>
        <time>2014-11-09T10:35:41Z</time>
      </trkpt>
      <trkpt lat="44.59703" lon="0.87459">
        <ele>175.58</ele>
        <time>2014-11-09T10:35:49Z</time>
      </trkpt>
      <trkpt lat="44.59661" lon="0.8751">
        <ele>182.31</ele>
        <time>2014-11-09T10:36:04Z</time>
      </trkpt>
      <trkpt lat="44.59632" lon="0.87544">
        <ele>184.71</ele>
        <time>2014-11-09T10:36:16Z</time>
      </trkpt>
      <trkpt lat="44.59608" lon="0.87605">
        <ele>182.79</ele>
        <time>2014-11-09T10:36:31Z</time>
      </trkpt>
      <trkpt lat="44.59589" lon="0.87664">
        <ele>184.23</ele>
        <time>2014-11-09T10:36:45Z</time>
      </trkpt>
      <trkpt lat="44.59576" lon="0.87722">
        <ele>187.59</ele>
        <time>2014-11-09T10:36:59Z</time>
      </trkpt>
      <trkpt lat="44.59559" lon="0.87774">
        <ele>190</ele>
        <time>2014-11-09T10:37:11Z</time>
      </trkpt>
      <trkpt lat="44.59545" lon="0.87823">
        <ele>192.88</ele>
        <time>2014-11-09T10:37:22Z</time>
      </trkpt>
      <trkpt lat="44.59538" lon="0.87865">
        <ele>190</ele>
        <time>2014-11-09T10:37:32Z</time>
      </trkpt>
      <trkpt lat="44.59542" lon="0.87871">
        <ele>191.44</ele>
        <time>2014-11-09T10:37:54Z</time>
      </trkpt>
      <trkpt lat="44.5954" lon="0.87869">
        <ele>193.36</ele>
        <time>2014-11-09T10:38:09Z</time>
      </trkpt>
      <trkpt lat="44.59512" lon="0.87853">
        <ele>196.25</ele>
        <time>2014-11-09T10:38:20Z</time>
      </trkpt>
      <trkpt lat="44.59485" lon="0.87841">
        <ele>197.21</ele>
        <time>2014-11-09T10:38:29Z</time>
      </trkpt>
      <trkpt lat="44.59456" lon="0.87834">
        <ele>198.17</ele>
        <time>2014-11-09T10:38:38Z</time>
      </trkpt>
      <trkpt lat="44.59425" lon="0.87838">
        <ele>199.61</ele>
        <time>2014-11-09T10:38:48Z</time>
      </trkpt>
      <trkpt lat="44.59399" lon="0.8782">
        <ele>201.05</ele>
        <time>2014-11-09T10:38:58Z</time>
      </trkpt>
      <trkpt lat="44.59388" lon="0.87815">
        <ele>200.57</ele>
        <time>2014-11-09T10:39:02Z</time>
      </trkpt>
      <trkpt lat="44.59383" lon="0.87818">
        <ele>200.09</ele>
        <time>2014-11-09T10:39:04Z</time>
      </trkpt>
      <trkpt lat="44.59342" lon="0.87836">
        <ele>203.46</ele>
        <time>2014-11-09T10:39:17Z</time>
      </trkpt>
      <trkpt lat="44.59319" lon="0.87849">
        <ele>203.46</ele>
        <time>2014-11-09T10:39:24Z</time>
      </trkpt>
      <trkpt lat="44.59279" lon="0.87881">
        <ele>199.13</ele>
        <time>2014-11-09T10:39:33Z</time>
      </trkpt>
      <trkpt lat="44.59251" lon="0.87913">
        <ele>193.36</ele>
        <time>2014-11-09T10:39:38Z</time>
      </trkpt>
      <trkpt lat="44.59235" lon="0.87943">
        <ele>189.52</ele>
        <time>2014-11-09T10:39:42Z</time>
      </trkpt>
      <trkpt lat="44.59211" lon="0.87976">
        <ele>186.15</ele>
        <time>2014-11-09T10:39:47Z</time>
      </trkpt>
      <trkpt lat="44.59186" lon="0.88009">
        <ele>182.79</ele>
        <time>2014-11-09T10:39:52Z</time>
      </trkpt>
      <trkpt lat="44.5917" lon="0.8803">
        <ele>180.38</ele>
        <time>2014-11-09T10:39:55Z</time>
      </trkpt>
      <trkpt lat="44.5915" lon="0.88063">
        <ele>177.5</ele>
        <time>2014-11-09T10:39:59Z</time>
      </trkpt>
      <trkpt lat="44.59116" lon="0.88127">
        <ele>171.25</ele>
        <time>2014-11-09T10:40:06Z</time>
      </trkpt>
      <trkpt lat="44.59089" lon="0.88151">
        <ele>168.85</ele>
        <time>2014-11-09T10:40:10Z</time>
      </trkpt>
      <trkpt lat="44.59066" lon="0.88148">
        <ele>168.85</ele>
        <time>2014-11-09T10:40:14Z</time>
      </trkpt>
      <trkpt lat="44.59041" lon="0.88124">
        <ele>168.85</ele>
        <time>2014-11-09T10:40:20Z</time>
      </trkpt>
      <trkpt lat="44.59005" lon="0.88147">
        <ele>166.93</ele>
        <time>2014-11-09T10:40:28Z</time>
      </trkpt>
      <trkpt lat="44.59" lon="0.88152">
        <ele>165.96</ele>
        <time>2014-11-09T10:40:29Z</time>
      </trkpt>
      <trkpt lat="44.58988" lon="0.88173">
        <ele>160.68</ele>
        <time>2014-11-09T10:40:37Z</time>
      </trkpt>
      <trkpt lat="44.5899" lon="0.88178">
        <ele>160.2</ele>
        <time>2014-11-09T10:40:47Z</time>
      </trkpt>
      <trkpt lat="44.5899" lon="0.88177">
        <ele>159.24</ele>
        <time>2014-11-09T10:41:08Z</time>
      </trkpt>
      <trkpt lat="44.58991" lon="0.88178">
        <ele>160.2</ele>
        <time>2014-11-09T10:41:18Z</time>
      </trkpt>
      <trkpt lat="44.59008" lon="0.88194">
        <ele>159.24</ele>
        <time>2014-11-09T10:41:31Z</time>
      </trkpt>
      <trkpt lat="44.5902" lon="0.88214">
        <ele>157.31</ele>
        <time>2014-11-09T10:41:36Z</time>
      </trkpt>
      <trkpt lat="44.59011" lon="0.88253">
        <ele>153.47</ele>
        <time>2014-11-09T10:41:43Z</time>
      </trkpt>
      <trkpt lat="44.59005" lon="0.88255">
        <ele>152.99</ele>
        <time>2014-11-09T10:41:44Z</time>
      </trkpt>
      <trkpt lat="44.58941" lon="0.88269">
        <ele>146.26</ele>
        <time>2014-11-09T10:41:54Z</time>
      </trkpt>
      <trkpt lat="44.58914" lon="0.88288">
        <ele>145.3</ele>
        <time>2014-11-09T10:41:59Z</time>
      </trkpt>
      <trkpt lat="44.58907" lon="0.88299">
        <ele>145.78</ele>
        <time>2014-11-09T10:42:01Z</time>
      </trkpt>
      <trkpt lat="44.58878" lon="0.88339">
        <ele>150.58</ele>
        <time>2014-11-09T10:42:14Z</time>
      </trkpt>
      <trkpt lat="44.58851" lon="0.88374">
        <ele>153.47</ele>
        <time>2014-11-09T10:42:27Z</time>
      </trkpt>
      <trkpt lat="44.58831" lon="0.88413">
        <ele>156.83</ele>
        <time>2014-11-09T10:42:41Z</time>
      </trkpt>
      <trkpt lat="44.58815" lon="0.88461">
        <ele>157.79</ele>
        <time>2014-11-09T10:42:55Z</time>
      </trkpt>
      <trkpt lat="44.58794" lon="0.8852">
        <ele>160.68</ele>
        <time>2014-11-09T10:43:11Z</time>
      </trkpt>
      <trkpt lat="44.5876" lon="0.88567">
        <ele>162.6</ele>
        <time>2014-11-09T10:43:26Z</time>
      </trkpt>
      <trkpt lat="44.58728" lon="0.88615">
        <ele>163.08</ele>
        <time>2014-11-09T10:43:41Z</time>
      </trkpt>
      <trkpt lat="44.58699" lon="0.88659">
        <ele>169.33</ele>
        <time>2014-11-09T10:43:57Z</time>
      </trkpt>
      <trkpt lat="44.58683" lon="0.8871">
        <ele>171.73</ele>
        <time>2014-11-09T10:44:14Z</time>
      </trkpt>
      <trkpt lat="44.587" lon="0.88777">
        <ele>173.66</ele>
        <time>2014-11-09T10:44:30Z</time>
      </trkpt>
      <trkpt lat="44.58727" lon="0.88818">
        <ele>176.54</ele>
        <time>2014-11-09T10:44:45Z</time>
      </trkpt>
      <trkpt lat="44.58745" lon="0.88866">
        <ele>176.54</ele>
        <time>2014-11-09T10:44:58Z</time>
      </trkpt>
      <trkpt lat="44.5876" lon="0.88938">
        <ele>177.5</ele>
        <time>2014-11-09T10:45:14Z</time>
      </trkpt>
      <trkpt lat="44.5876" lon="0.88983">
        <ele>181.35</ele>
        <time>2014-11-09T10:45:27Z</time>
      </trkpt>
      <trkpt lat="44.58761" lon="0.89029">
        <ele>183.75</ele>
        <time>2014-11-09T10:45:42Z</time>
      </trkpt>
      <trkpt lat="44.58762" lon="0.89042">
        <ele>183.75</ele>
        <time>2014-11-09T10:45:47Z</time>
      </trkpt>
      <trkpt lat="44.5874" lon="0.89088">
        <ele>180.87</ele>
        <time>2014-11-09T10:45:56Z</time>
      </trkpt>
      <trkpt lat="44.58719" lon="0.89142">
        <ele>182.79</ele>
        <time>2014-11-09T10:46:09Z</time>
      </trkpt>
      <trkpt lat="44.58696" lon="0.8919">
        <ele>180.87</ele>
        <time>2014-11-09T10:46:23Z</time>
      </trkpt>
      <trkpt lat="44.58677" lon="0.89236">
        <ele>180.38</ele>
        <time>2014-11-09T10:46:35Z</time>
      </trkpt>
      <trkpt lat="44.58664" lon="0.89268">
        <ele>179.42</ele>
        <time>2014-11-09T10:46:43Z</time>
      </trkpt>
      <trkpt lat="44.5867" lon="0.89283">
        <ele>179.42</ele>
        <time>2014-11-09T10:46:47Z</time>
      </trkpt>
      <trkpt lat="44.58688" lon="0.89301">
        <ele>183.27</ele>
        <time>2014-11-09T10:46:55Z</time>
      </trkpt>
      <trkpt lat="44.5869" lon="0.89308">
        <ele>184.71</ele>
        <time>2014-11-09T10:46:58Z</time>
      </trkpt>
      <trkpt lat="44.58694" lon="0.89326">
        <ele>187.11</ele>
        <time>2014-11-09T10:47:07Z</time>
      </trkpt>
      <trkpt lat="44.58704" lon="0.89363">
        <ele>191.44</ele>
        <time>2014-11-09T10:47:24Z</time>
      </trkpt>
      <trkpt lat="44.58705" lon="0.89368">
        <ele>192.4</ele>
        <time>2014-11-09T10:47:26Z</time>
      </trkpt>
      <trkpt lat="44.58706" lon="0.89376">
        <ele>192.88</ele>
        <time>2014-11-09T10:47:30Z</time>
      </trkpt>
      <trkpt lat="44.58714" lon="0.89412">
        <ele>196.25</ele>
        <time>2014-11-09T10:47:46Z</time>
      </trkpt>
      <trkpt lat="44.58716" lon="0.89453">
        <ele>196.73</ele>
        <time>2014-11-09T10:47:59Z</time>
      </trkpt>
      <trkpt lat="44.58716" lon="0.89495">
        <ele>199.13</ele>
        <time>2014-11-09T10:48:11Z</time>
      </trkpt>
      <trkpt lat="44.58728" lon="0.89532">
        <ele>208.74</ele>
        <time>2014-11-09T10:48:23Z</time>
      </trkpt>
      <trkpt lat="44.58744" lon="0.8956">
        <ele>212.11</ele>
        <time>2014-11-09T10:48:35Z</time>
      </trkpt>
      <trkpt lat="44.5876" lon="0.89584">
        <ele>215.47</ele>
        <time>2014-11-09T10:48:48Z</time>
      </trkpt>
      <trkpt lat="44.58783" lon="0.89605">
        <ele>217.4</ele>
        <time>2014-11-09T10:49:03Z</time>
      </trkpt>
      <trkpt lat="44.58805" lon="0.89628">
        <ele>220.28</ele>
        <time>2014-11-09T10:49:19Z</time>
      </trkpt>
      <trkpt lat="44.58832" lon="0.89652">
        <ele>222.2</ele>
        <time>2014-11-09T10:49:34Z</time>
      </trkpt>
      <trkpt lat="44.58842" lon="0.8966">
        <ele>222.68</ele>
        <time>2014-11-09T10:49:39Z</time>
      </trkpt>
      <trkpt lat="44.58848" lon="0.89662">
        <ele>223.16</ele>
        <time>2014-11-09T10:49:42Z</time>
      </trkpt>
      <trkpt lat="44.58854" lon="0.89667">
        <ele>221.72</ele>
        <time>2014-11-09T10:49:53Z</time>
      </trkpt>
      <trkpt lat="44.58854" lon="0.89666">
        <ele>219.32</ele>
        <time>2014-11-09T10:50:22Z</time>
      </trkpt>
      <trkpt lat="44.58855" lon="0.89668">
        <ele>219.8</ele>
        <time>2014-11-09T10:50:40Z</time>
      </trkpt>
      <trkpt lat="44.58854" lon="0.89666">
        <ele>219.32</ele>
        <time>2014-11-09T10:50:57Z</time>
      </trkpt>
      <trkpt lat="44.58853" lon="0.89667">
        <ele>219.8</ele>
        <time>2014-11-09T10:51:22Z</time>
      </trkpt>
      <trkpt lat="44.58854" lon="0.89668">
        <ele>221.72</ele>
        <time>2014-11-09T10:51:41Z</time>
      </trkpt>
      <trkpt lat="44.58854" lon="0.89668">
        <ele>221.24</ele>
        <time>2014-11-09T10:51:58Z</time>
      </trkpt>
      <trkpt lat="44.58854" lon="0.89667">
        <ele>221.24</ele>
        <time>2014-11-09T10:52:21Z</time>
      </trkpt>
      <trkpt lat="44.58855" lon="0.89666">
        <ele>221.24</ele>
        <time>2014-11-09T10:52:43Z</time>
      </trkpt>
      <trkpt lat="44.58855" lon="0.89666">
        <ele>222.2</ele>
        <time>2014-11-09T10:53:12Z</time>
      </trkpt>
      <trkpt lat="44.58854" lon="0.89666">
        <ele>221.24</ele>
        <time>2014-11-09T10:53:24Z</time>
      </trkpt>
      <trkpt lat="44.58853" lon="0.89665">
        <ele>220.28</ele>
        <time>2014-11-09T10:53:52Z</time>
      </trkpt>
      <trkpt lat="44.58855" lon="0.89667">
        <ele>220.28</ele>
        <time>2014-11-09T10:54:19Z</time>
      </trkpt>
      <trkpt lat="44.58855" lon="0.89667">
        <ele>220.28</ele>
        <time>2014-11-09T10:54:35Z</time>
      </trkpt>
      <trkpt lat="44.58853" lon="0.89677">
        <ele>220.28</ele>
        <time>2014-11-09T10:54:40Z</time>
      </trkpt>
      <trkpt lat="44.58857" lon="0.8974">
        <ele>222.2</ele>
        <time>2014-11-09T10:54:58Z</time>
      </trkpt>
      <trkpt lat="44.58888" lon="0.89793">
        <ele>223.64</ele>
        <time>2014-11-09T10:55:14Z</time>
      </trkpt>
      <trkpt lat="44.58921" lon="0.89857">
        <ele>225.09</ele>
        <time>2014-11-09T10:55:30Z</time>
      </trkpt>
      <trkpt lat="44.58919" lon="0.89941">
        <ele>226.05</ele>
        <time>2014-11-09T10:55:46Z</time>
      </trkpt>
      <trkpt lat="44.589" lon="0.90046">
        <ele>227.01</ele>
        <time>2014-11-09T10:56:05Z</time>
      </trkpt>
      <trkpt lat="44.58897" lon="0.90074">
        <ele>227.49</ele>
        <time>2014-11-09T10:56:10Z</time>
      </trkpt>
      <trkpt lat="44.58897" lon="0.90092">
        <ele>227.97</ele>
        <time>2014-11-09T10:56:13Z</time>
      </trkpt>
      <trkpt lat="44.58897" lon="0.90103">
        <ele>227.97</ele>
        <time>2014-11-09T10:56:15Z</time>
      </trkpt>
      <trkpt lat="44.58899" lon="0.90115">
        <ele>228.45</ele>
        <time>2014-11-09T10:56:17Z</time>
      </trkpt>
      <trkpt lat="44.58902" lon="0.90126">
        <ele>228.45</ele>
        <time>2014-11-09T10:56:19Z</time>
      </trkpt>
      <trkpt lat="44.58923" lon="0.90192">
        <ele>229.89</ele>
        <time>2014-11-09T10:56:31Z</time>
      </trkpt>
      <trkpt lat="44.58924" lon="0.90206">
        <ele>229.89</ele>
        <time>2014-11-09T10:56:33Z</time>
      </trkpt>
      <trkpt lat="44.58921" lon="0.90263">
        <ele>230.37</ele>
        <time>2014-11-09T10:56:41Z</time>
      </trkpt>
      <trkpt lat="44.58921" lon="0.90276">
        <ele>230.37</ele>
        <time>2014-11-09T10:56:43Z</time>
      </trkpt>
      <trkpt lat="44.58923" lon="0.9029">
        <ele>229.89</ele>
        <time>2014-11-09T10:56:45Z</time>
      </trkpt>
      <trkpt lat="44.5893" lon="0.90306">
        <ele>229.41</ele>
        <time>2014-11-09T10:56:48Z</time>
      </trkpt>
      <trkpt lat="44.58973" lon="0.90364">
        <ele>224.61</ele>
        <time>2014-11-09T10:56:58Z</time>
      </trkpt>
      <trkpt lat="44.58991" lon="0.90382">
        <ele>222.2</ele>
        <time>2014-11-09T10:57:06Z</time>
      </trkpt>
      <trkpt lat="44.59" lon="0.90382">
        <ele>222.68</ele>
        <time>2014-11-09T10:57:09Z</time>
      </trkpt>
      <trkpt lat="44.59026" lon="0.90434">
        <ele>220.76</ele>
        <time>2014-11-09T10:57:20Z</time>
      </trkpt>
      <trkpt lat="44.59044" lon="0.90478">
        <ele>217.88</ele>
        <time>2014-11-09T10:57:25Z</time>
      </trkpt>
      <trkpt lat="44.59057" lon="0.90565">
        <ele>210.67</ele>
        <time>2014-11-09T10:57:32Z</time>
      </trkpt>
      <trkpt lat="44.59065" lon="0.90615">
        <ele>204.9</ele>
        <time>2014-11-09T10:57:36Z</time>
      </trkpt>
      <trkpt lat="44.59057" lon="0.90697">
        <ele>194.8</ele>
        <time>2014-11-09T10:57:43Z</time>
      </trkpt>
      <trkpt lat="44.59017" lon="0.90789">
        <ele>183.27</ele>
        <time>2014-11-09T10:57:51Z</time>
      </trkpt>
      <trkpt lat="44.59007" lon="0.90847">
        <ele>176.06</ele>
        <time>2014-11-09T10:57:58Z</time>
      </trkpt>
      <trkpt lat="44.59004" lon="0.9085">
        <ele>176.06</ele>
        <time>2014-11-09T10:57:59Z</time>
      </trkpt>
      <trkpt lat="44.58968" lon="0.90872">
        <ele>183.75</ele>
        <time>2014-11-09T10:58:12Z</time>
      </trkpt>
      <trkpt lat="44.58947" lon="0.90892">
        <ele>190</ele>
        <time>2014-11-09T10:58:23Z</time>
      </trkpt>
      <trkpt lat="44.58928" lon="0.90916">
        <ele>195.28</ele>
        <time>2014-11-09T10:58:34Z</time>
      </trkpt>
      <trkpt lat="44.58904" lon="0.90946">
        <ele>200.57</ele>
        <time>2014-11-09T10:58:47Z</time>
      </trkpt>
      <trkpt lat="44.58901" lon="0.90952">
        <ele>201.53</ele>
        <time>2014-11-09T10:58:49Z</time>
      </trkpt>
      <trkpt lat="44.58898" lon="0.90964">
        <ele>203.46</ele>
        <time>2014-11-09T10:58:53Z</time>
      </trkpt>
      <trkpt lat="44.58883" lon="0.91006">
        <ele>206.82</ele>
        <time>2014-11-09T10:59:05Z</time>
      </trkpt>
      <trkpt lat="44.58863" lon="0.91058">
        <ele>206.34</ele>
        <time>2014-11-09T10:59:20Z</time>
      </trkpt>
      <trkpt lat="44.58846" lon="0.91107">
        <ele>200.57</ele>
        <time>2014-11-09T10:59:34Z</time>
      </trkpt>
      <trkpt lat="44.5884" lon="0.91152">
        <ele>194.8</ele>
        <time>2014-11-09T10:59:45Z</time>
      </trkpt>
      <trkpt lat="44.58839" lon="0.91168">
        <ele>192.4</ele>
        <time>2014-11-09T10:59:49Z</time>
      </trkpt>
      <trkpt lat="44.5884" lon="0.91182">
        <ele>189.04</ele>
        <time>2014-11-09T10:59:53Z</time>
      </trkpt>
      <trkpt lat="44.58835" lon="0.91209">
        <ele>184.23</ele>
        <time>2014-11-09T11:00:02Z</time>
      </trkpt>
      <trkpt lat="44.58835" lon="0.91238">
        <ele>177.5</ele>
        <time>2014-11-09T11:00:10Z</time>
      </trkpt>
      <trkpt lat="44.58832" lon="0.91282">
        <ele>168.85</ele>
        <time>2014-11-09T11:00:23Z</time>
      </trkpt>
      <trkpt lat="44.58831" lon="0.9129">
        <ele>168.37</ele>
        <time>2014-11-09T11:00:25Z</time>
      </trkpt>
      <trkpt lat="44.58806" lon="0.91329">
        <ele>172.69</ele>
        <time>2014-11-09T11:00:39Z</time>
      </trkpt>
      <trkpt lat="44.58773" lon="0.91361">
        <ele>189.04</ele>
        <time>2014-11-09T11:00:54Z</time>
      </trkpt>
      <trkpt lat="44.58741" lon="0.91392">
        <ele>216.43</ele>
        <time>2014-11-09T11:01:08Z</time>
      </trkpt>
      <trkpt lat="44.58696" lon="0.91427">
        <ele>235.18</ele>
        <time>2014-11-09T11:01:24Z</time>
      </trkpt>
      <trkpt lat="44.58672" lon="0.91453">
        <ele>235.18</ele>
        <time>2014-11-09T11:01:37Z</time>
      </trkpt>
      <trkpt lat="44.58657" lon="0.91471">
        <ele>232.78</ele>
        <time>2014-11-09T11:01:47Z</time>
      </trkpt>
      <trkpt lat="44.58637" lon="0.91496">
        <ele>231.33</ele>
        <time>2014-11-09T11:01:59Z</time>
      </trkpt>
      <trkpt lat="44.58613" lon="0.91521">
        <ele>230.85</ele>
        <time>2014-11-09T11:02:12Z</time>
      </trkpt>
      <trkpt lat="44.58598" lon="0.91538">
        <ele>232.78</ele>
        <time>2014-11-09T11:02:24Z</time>
      </trkpt>
      <trkpt lat="44.58594" lon="0.9154">
        <ele>236.62</ele>
        <time>2014-11-09T11:02:45Z</time>
      </trkpt>
      <trkpt lat="44.58592" lon="0.9154">
        <ele>237.58</ele>
        <time>2014-11-09T11:03:04Z</time>
      </trkpt>
      <trkpt lat="44.58593" lon="0.91539">
        <ele>239.51</ele>
        <time>2014-11-09T11:03:26Z</time>
      </trkpt>
      <trkpt lat="44.58589" lon="0.9154">
        <ele>240.47</ele>
        <time>2014-11-09T11:03:47Z</time>
      </trkpt>
      <trkpt lat="44.58591" lon="0.91539">
        <ele>240.95</ele>
        <time>2014-11-09T11:04:13Z</time>
      </trkpt>
      <trkpt lat="44.58591" lon="0.9154">
        <ele>239.99</ele>
        <time>2014-11-09T11:04:38Z</time>
      </trkpt>
      <trkpt lat="44.58591" lon="0.91545">
        <ele>239.51</ele>
        <time>2014-11-09T11:04:56Z</time>
      </trkpt>
      <trkpt lat="44.58583" lon="0.91571">
        <ele>237.1</ele>
        <time>2014-11-09T11:05:08Z</time>
      </trkpt>
      <trkpt lat="44.58578" lon="0.91582">
        <ele>235.66</ele>
        <time>2014-11-09T11:05:11Z</time>
      </trkpt>
      <trkpt lat="44.58564" lon="0.91602">
        <ele>233.74</ele>
        <time>2014-11-09T11:05:15Z</time>
      </trkpt>
      <trkpt lat="44.58554" lon="0.91613">
        <ele>233.26</ele>
        <time>2014-11-09T11:05:17Z</time>
      </trkpt>
      <trkpt lat="44.58536" lon="0.91646">
        <ele>231.33</ele>
        <time>2014-11-09T11:05:21Z</time>
      </trkpt>
      <trkpt lat="44.58516" lon="0.91687">
        <ele>227.97</ele>
        <time>2014-11-09T11:05:25Z</time>
      </trkpt>
      <trkpt lat="44.58474" lon="0.9171">
        <ele>225.57</ele>
        <time>2014-11-09T11:05:31Z</time>
      </trkpt>
      <trkpt lat="44.58426" lon="0.91691">
        <ele>228.93</ele>
        <time>2014-11-09T11:05:39Z</time>
      </trkpt>
      <trkpt lat="44.58416" lon="0.9169">
        <ele>229.89</ele>
        <time>2014-11-09T11:05:41Z</time>
      </trkpt>
      <trkpt lat="44.5837" lon="0.91719">
        <ele>233.26</ele>
        <time>2014-11-09T11:05:52Z</time>
      </trkpt>
      <trkpt lat="44.58334" lon="0.91752">
        <ele>236.14</ele>
        <time>2014-11-09T11:06:04Z</time>
      </trkpt>
      <trkpt lat="44.58309" lon="0.91783">
        <ele>237.1</ele>
        <time>2014-11-09T11:06:15Z</time>
      </trkpt>
      <trkpt lat="44.58322" lon="0.91811">
        <ele>237.1</ele>
        <time>2014-11-09T11:06:25Z</time>
      </trkpt>
      <trkpt lat="44.58356" lon="0.91876">
        <ele>237.1</ele>
        <time>2014-11-09T11:06:42Z</time>
      </trkpt>
      <trkpt lat="44.58381" lon="0.9196">
        <ele>236.62</ele>
        <time>2014-11-09T11:06:58Z</time>
      </trkpt>
      <trkpt lat="44.58395" lon="0.91978">
        <ele>237.1</ele>
        <time>2014-11-09T11:07:02Z</time>
      </trkpt>
      <trkpt lat="44.58422" lon="0.92003">
        <ele>237.1</ele>
        <time>2014-11-09T11:07:09Z</time>
      </trkpt>
      <trkpt lat="44.58497" lon="0.92045">
        <ele>238.54</ele>
        <time>2014-11-09T11:07:27Z</time>
      </trkpt>
      <trkpt lat="44.58552" lon="0.92105">
        <ele>240.47</ele>
        <time>2014-11-09T11:07:43Z</time>
      </trkpt>
      <trkpt lat="44.58586" lon="0.92167">
        <ele>241.43</ele>
        <time>2014-11-09T11:07:56Z</time>
      </trkpt>
      <trkpt lat="44.58611" lon="0.92253">
        <ele>242.87</ele>
        <time>2014-11-09T11:08:14Z</time>
      </trkpt>
      <trkpt lat="44.58623" lon="0.92301">
        <ele>243.83</ele>
        <time>2014-11-09T11:08:30Z</time>
      </trkpt>
      <trkpt lat="44.58639" lon="0.92378">
        <ele>244.31</ele>
        <time>2014-11-09T11:08:49Z</time>
      </trkpt>
      <trkpt lat="44.58652" lon="0.92449">
        <ele>241.43</ele>
        <time>2014-11-09T11:09:02Z</time>
      </trkpt>
      <trkpt lat="44.58656" lon="0.92465">
        <ele>240.47</ele>
        <time>2014-11-09T11:09:05Z</time>
      </trkpt>
      <trkpt lat="44.58692" lon="0.92464">
        <ele>241.43</ele>
        <time>2014-11-09T11:09:15Z</time>
      </trkpt>
      <trkpt lat="44.58699" lon="0.92463">
        <ele>240.95</ele>
        <time>2014-11-09T11:09:17Z</time>
      </trkpt>
      <trkpt lat="44.58722" lon="0.92459">
        <ele>241.91</ele>
        <time>2014-11-09T11:09:22Z</time>
      </trkpt>
      <trkpt lat="44.58764" lon="0.92448">
        <ele>243.35</ele>
        <time>2014-11-09T11:09:30Z</time>
      </trkpt>
      <trkpt lat="44.58832" lon="0.92433">
        <ele>244.31</ele>
        <time>2014-11-09T11:09:44Z</time>
      </trkpt>
      <trkpt lat="44.5884" lon="0.9243">
        <ele>244.31</ele>
        <time>2014-11-09T11:09:46Z</time>
      </trkpt>
      <trkpt lat="44.5886" lon="0.92416">
        <ele>243.83</ele>
        <time>2014-11-09T11:09:51Z</time>
      </trkpt>
      <trkpt lat="44.58925" lon="0.92392">
        <ele>241.43</ele>
        <time>2014-11-09T11:10:04Z</time>
      </trkpt>
      <trkpt lat="44.58931" lon="0.92391">
        <ele>240.95</ele>
        <time>2014-11-09T11:10:05Z</time>
      </trkpt>
      <trkpt lat="44.58953" lon="0.9241">
        <ele>239.02</ele>
        <time>2014-11-09T11:10:10Z</time>
      </trkpt>
      <trkpt lat="44.58999" lon="0.92503">
        <ele>242.39</ele>
        <time>2014-11-09T11:10:24Z</time>
      </trkpt>
      <trkpt lat="44.59008" lon="0.92521">
        <ele>243.35</ele>
        <time>2014-11-09T11:10:27Z</time>
      </trkpt>
      <trkpt lat="44.59021" lon="0.92546">
        <ele>244.31</ele>
        <time>2014-11-09T11:10:31Z</time>
      </trkpt>
      <trkpt lat="44.59029" lon="0.92568">
        <ele>244.31</ele>
        <time>2014-11-09T11:10:34Z</time>
      </trkpt>
      <trkpt lat="44.59027" lon="0.92629">
        <ele>241.43</ele>
        <time>2014-11-09T11:10:40Z</time>
      </trkpt>
      <trkpt lat="44.58996" lon="0.92709">
        <ele>242.87</ele>
        <time>2014-11-09T11:10:51Z</time>
      </trkpt>
      <trkpt lat="44.58993" lon="0.92719">
        <ele>242.39</ele>
        <time>2014-11-09T11:10:53Z</time>
      </trkpt>
      <trkpt lat="44.59008" lon="0.92729">
        <ele>242.39</ele>
        <time>2014-11-09T11:10:58Z</time>
      </trkpt>
      <trkpt lat="44.59077" lon="0.92757">
        <ele>240.95</ele>
        <time>2014-11-09T11:11:12Z</time>
      </trkpt>
      <trkpt lat="44.59106" lon="0.92777">
        <ele>240.47</ele>
        <time>2014-11-09T11:11:18Z</time>
      </trkpt>
      <trkpt lat="44.59126" lon="0.92776">
        <ele>239.99</ele>
        <time>2014-11-09T11:11:22Z</time>
      </trkpt>
      <trkpt lat="44.5918" lon="0.92747">
        <ele>240.95</ele>
        <time>2014-11-09T11:11:36Z</time>
      </trkpt>
      <trkpt lat="44.59197" lon="0.92751">
        <ele>240.95</ele>
        <time>2014-11-09T11:11:42Z</time>
      </trkpt>
      <trkpt lat="44.59197" lon="0.92766">
        <ele>241.91</ele>
        <time>2014-11-09T11:11:48Z</time>
      </trkpt>
      <trkpt lat="44.59193" lon="0.9277">
        <ele>242.39</ele>
        <time>2014-11-09T11:12:01Z</time>
      </trkpt>
      <trkpt lat="44.59192" lon="0.92769">
        <ele>241.91</ele>
        <time>2014-11-09T11:12:20Z</time>
      </trkpt>
    </trkseg>
  </trk>
</gpx>